<?xml version="1.0" encoding="UTF-8" standalone="no" ?>
<gpx xmlns="http://www.topografix.com/GPX/1/1" xmlns:xsi="http://www.w3.org/2001/XMLSchema-instance" xsi:schemaLocation="http://www.topografix.com/GPX/1/1 http://www.topografix.com/GPX/1/1/gpx.xsd" version="1.1" creator="VisuGPX - https://www.visugpx.com">
  <metadata>
    <name>083_Circuit 64 km Les Herbiers_Les Herbiers édité par cth85.com</name>
    <desc><![CDATA[Circuit de 64 km passant par:
Les Herbiers
les peux, la grillère, D27
La Gaubretière
D9 Tiffauges
Torfou
D102 La Bruffière
D62 La Boissière de Montaigu
D23 Bazoges en Paillers
D23, D53 Mesnard la Barotière
D11 Les Herbiers]]></desc>
  </metadata>
  <trk>
    <name><![CDATA[64_83-15906456]]></name>
    <trkseg>
      <trkpt lat="46.86375" lon="-1.00569">
        <ele>120</ele>
        <time>2022-12-01T14:20:03Z</time>
      </trkpt>
      <trkpt lat="46.86381" lon="-1.00562">
        <ele>120</ele>
        <time>2022-12-01T14:20:04Z</time>
      </trkpt>
      <trkpt lat="46.86391" lon="-1.00556">
        <ele>120</ele>
        <time>2022-12-01T14:20:06Z</time>
      </trkpt>
      <trkpt lat="46.86426" lon="-1.00564">
        <ele>120</ele>
        <time>2022-12-01T14:20:13Z</time>
      </trkpt>
      <trkpt lat="46.86461" lon="-1.00561">
        <ele>120</ele>
        <time>2022-12-01T14:20:19Z</time>
      </trkpt>
      <trkpt lat="46.86495" lon="-1.00567">
        <ele>119</ele>
        <time>2022-12-01T14:20:25Z</time>
      </trkpt>
      <trkpt lat="46.86523" lon="-1.00577">
        <ele>118</ele>
        <time>2022-12-01T14:20:30Z</time>
      </trkpt>
      <trkpt lat="46.86573" lon="-1.00609">
        <ele>117</ele>
        <time>2022-12-01T14:20:40Z</time>
      </trkpt>
      <trkpt lat="46.86595" lon="-1.00621">
        <ele>116</ele>
        <time>2022-12-01T14:20:44Z</time>
      </trkpt>
      <trkpt lat="46.86664" lon="-1.00646">
        <ele>111</ele>
        <time>2022-12-01T14:20:57Z</time>
      </trkpt>
      <trkpt lat="46.86708" lon="-1.0066">
        <ele>111</ele>
        <time>2022-12-01T14:21:05Z</time>
      </trkpt>
      <trkpt lat="46.86712" lon="-1.00666">
        <ele>111</ele>
        <time>2022-12-01T14:21:06Z</time>
      </trkpt>
      <trkpt lat="46.86714" lon="-1.00674">
        <ele>111</ele>
        <time>2022-12-01T14:21:07Z</time>
      </trkpt>
      <trkpt lat="46.86765" lon="-1.00654">
        <ele>111</ele>
        <time>2022-12-01T14:21:16Z</time>
      </trkpt>
      <trkpt lat="46.86836" lon="-1.00634">
        <ele>112</ele>
        <time>2022-12-01T14:21:29Z</time>
      </trkpt>
      <trkpt lat="46.86853" lon="-1.00633">
        <ele>112</ele>
        <time>2022-12-01T14:21:32Z</time>
      </trkpt>
      <trkpt lat="46.86937" lon="-1.00661">
        <ele>109</ele>
        <time>2022-12-01T14:21:47Z</time>
      </trkpt>
      <trkpt lat="46.86948" lon="-1.00671">
        <ele>109</ele>
        <time>2022-12-01T14:21:50Z</time>
      </trkpt>
      <trkpt lat="46.86983" lon="-1.00859">
        <ele>105</ele>
        <time>2022-12-01T14:22:13Z</time>
      </trkpt>
      <trkpt lat="46.86999" lon="-1.00914">
        <ele>103</ele>
        <time>2022-12-01T14:22:21Z</time>
      </trkpt>
      <trkpt lat="46.86998" lon="-1.00924">
        <ele>103</ele>
        <time>2022-12-01T14:22:22Z</time>
      </trkpt>
      <trkpt lat="46.87003" lon="-1.00927">
        <ele>103</ele>
        <time>2022-12-01T14:22:23Z</time>
      </trkpt>
      <trkpt lat="46.87003" lon="-1.00933">
        <ele>103</ele>
        <time>2022-12-01T14:22:23Z</time>
      </trkpt>
      <trkpt lat="46.87001" lon="-1.00935">
        <ele>103</ele>
        <time>2022-12-01T14:22:24Z</time>
      </trkpt>
      <trkpt lat="46.87006" lon="-1.00942">
        <ele>102</ele>
        <time>2022-12-01T14:22:25Z</time>
      </trkpt>
      <trkpt lat="46.8704" lon="-1.0106">
        <ele>102</ele>
        <time>2022-12-01T14:22:41Z</time>
      </trkpt>
      <trkpt lat="46.87114" lon="-1.01307">
        <ele>108</ele>
        <time>2022-12-01T14:23:14Z</time>
      </trkpt>
      <trkpt lat="46.87115" lon="-1.0132">
        <ele>108</ele>
        <time>2022-12-01T14:23:15Z</time>
      </trkpt>
      <trkpt lat="46.87143" lon="-1.01312">
        <ele>109</ele>
        <time>2022-12-01T14:23:20Z</time>
      </trkpt>
      <trkpt lat="46.87211" lon="-1.01301">
        <ele>110</ele>
        <time>2022-12-01T14:23:32Z</time>
      </trkpt>
      <trkpt lat="46.8728" lon="-1.01272">
        <ele>110</ele>
        <time>2022-12-01T14:23:45Z</time>
      </trkpt>
      <trkpt lat="46.87288" lon="-1.01272">
        <ele>110</ele>
        <time>2022-12-01T14:23:47Z</time>
      </trkpt>
      <trkpt lat="46.87295" lon="-1.01275">
        <ele>110</ele>
        <time>2022-12-01T14:23:48Z</time>
      </trkpt>
      <trkpt lat="46.87303" lon="-1.01285">
        <ele>110</ele>
        <time>2022-12-01T14:23:50Z</time>
      </trkpt>
      <trkpt lat="46.87307" lon="-1.01302">
        <ele>111</ele>
        <time>2022-12-01T14:23:52Z</time>
      </trkpt>
      <trkpt lat="46.87325" lon="-1.01387">
        <ele>113</ele>
        <time>2022-12-01T14:24:03Z</time>
      </trkpt>
      <trkpt lat="46.87325" lon="-1.01397">
        <ele>113</ele>
        <time>2022-12-01T14:24:04Z</time>
      </trkpt>
      <trkpt lat="46.87329" lon="-1.0141">
        <ele>114</ele>
        <time>2022-12-01T14:24:06Z</time>
      </trkpt>
      <trkpt lat="46.87343" lon="-1.01481">
        <ele>115</ele>
        <time>2022-12-01T14:24:15Z</time>
      </trkpt>
      <trkpt lat="46.87351" lon="-1.01482">
        <ele>115</ele>
        <time>2022-12-01T14:24:16Z</time>
      </trkpt>
      <trkpt lat="46.87516" lon="-1.01402">
        <ele>124</ele>
        <time>2022-12-01T14:24:47Z</time>
      </trkpt>
      <trkpt lat="46.87526" lon="-1.01433">
        <ele>123</ele>
        <time>2022-12-01T14:24:51Z</time>
      </trkpt>
      <trkpt lat="46.87534" lon="-1.01441">
        <ele>123</ele>
        <time>2022-12-01T14:24:53Z</time>
      </trkpt>
      <trkpt lat="46.87549" lon="-1.01446">
        <ele>123</ele>
        <time>2022-12-01T14:24:56Z</time>
      </trkpt>
      <trkpt lat="46.87604" lon="-1.01452">
        <ele>121</ele>
        <time>2022-12-01T14:25:05Z</time>
      </trkpt>
      <trkpt lat="46.87655" lon="-1.01478">
        <ele>119</ele>
        <time>2022-12-01T14:25:15Z</time>
      </trkpt>
      <trkpt lat="46.87714" lon="-1.01513">
        <ele>119</ele>
        <time>2022-12-01T14:25:26Z</time>
      </trkpt>
      <trkpt lat="46.87743" lon="-1.01524">
        <ele>120</ele>
        <time>2022-12-01T14:25:32Z</time>
      </trkpt>
      <trkpt lat="46.87765" lon="-1.0153">
        <ele>121</ele>
        <time>2022-12-01T14:25:36Z</time>
      </trkpt>
      <trkpt lat="46.87765" lon="-1.01542">
        <ele>121</ele>
        <time>2022-12-01T14:25:37Z</time>
      </trkpt>
      <trkpt lat="46.87767" lon="-1.0155">
        <ele>121</ele>
        <time>2022-12-01T14:25:38Z</time>
      </trkpt>
      <trkpt lat="46.8777" lon="-1.01756">
        <ele>121</ele>
        <time>2022-12-01T14:26:03Z</time>
      </trkpt>
      <trkpt lat="46.87774" lon="-1.01756">
        <ele>121</ele>
        <time>2022-12-01T14:26:04Z</time>
      </trkpt>
      <trkpt lat="46.87776" lon="-1.01771">
        <ele>121</ele>
        <time>2022-12-01T14:26:06Z</time>
      </trkpt>
      <trkpt lat="46.8778" lon="-1.01778">
        <ele>121</ele>
        <time>2022-12-01T14:26:07Z</time>
      </trkpt>
      <trkpt lat="46.87793" lon="-1.0178">
        <ele>121</ele>
        <time>2022-12-01T14:26:09Z</time>
      </trkpt>
      <trkpt lat="46.87793" lon="-1.018">
        <ele>121</ele>
        <time>2022-12-01T14:26:12Z</time>
      </trkpt>
      <trkpt lat="46.87881" lon="-1.018">
        <ele>124</ele>
        <time>2022-12-01T14:26:27Z</time>
      </trkpt>
      <trkpt lat="46.87884" lon="-1.01791">
        <ele>124</ele>
        <time>2022-12-01T14:26:29Z</time>
      </trkpt>
      <trkpt lat="46.87888" lon="-1.01788">
        <ele>124</ele>
        <time>2022-12-01T14:26:29Z</time>
      </trkpt>
      <trkpt lat="46.87895" lon="-1.01791">
        <ele>124</ele>
        <time>2022-12-01T14:26:31Z</time>
      </trkpt>
      <trkpt lat="46.87898" lon="-1.01798">
        <ele>124</ele>
        <time>2022-12-01T14:26:32Z</time>
      </trkpt>
      <trkpt lat="46.87907" lon="-1.01798">
        <ele>125</ele>
        <time>2022-12-01T14:26:33Z</time>
      </trkpt>
      <trkpt lat="46.87928" lon="-1.01795">
        <ele>125</ele>
        <time>2022-12-01T14:26:37Z</time>
      </trkpt>
      <trkpt lat="46.87966" lon="-1.01785">
        <ele>127</ele>
        <time>2022-12-01T14:26:44Z</time>
      </trkpt>
      <trkpt lat="46.87992" lon="-1.01775">
        <ele>128</ele>
        <time>2022-12-01T14:26:49Z</time>
      </trkpt>
      <trkpt lat="46.88045" lon="-1.01748">
        <ele>130</ele>
        <time>2022-12-01T14:26:59Z</time>
      </trkpt>
      <trkpt lat="46.88084" lon="-1.01722">
        <ele>132</ele>
        <time>2022-12-01T14:27:06Z</time>
      </trkpt>
      <trkpt lat="46.88082" lon="-1.01717">
        <ele>132</ele>
        <time>2022-12-01T14:27:07Z</time>
      </trkpt>
      <trkpt lat="46.88083" lon="-1.01707">
        <ele>133</ele>
        <time>2022-12-01T14:27:08Z</time>
      </trkpt>
      <trkpt lat="46.88085" lon="-1.01703">
        <ele>133</ele>
        <time>2022-12-01T14:27:09Z</time>
      </trkpt>
      <trkpt lat="46.88091" lon="-1.01699">
        <ele>133</ele>
        <time>2022-12-01T14:27:10Z</time>
      </trkpt>
      <trkpt lat="46.88098" lon="-1.01701">
        <ele>133</ele>
        <time>2022-12-01T14:27:11Z</time>
      </trkpt>
      <trkpt lat="46.88102" lon="-1.01708">
        <ele>133</ele>
        <time>2022-12-01T14:27:12Z</time>
      </trkpt>
      <trkpt lat="46.88103" lon="-1.01717">
        <ele>133</ele>
        <time>2022-12-01T14:27:14Z</time>
      </trkpt>
      <trkpt lat="46.88099" lon="-1.01726">
        <ele>133</ele>
        <time>2022-12-01T14:27:15Z</time>
      </trkpt>
      <trkpt lat="46.88113" lon="-1.01752">
        <ele>132</ele>
        <time>2022-12-01T14:27:19Z</time>
      </trkpt>
      <trkpt lat="46.88121" lon="-1.0178">
        <ele>132</ele>
        <time>2022-12-01T14:27:23Z</time>
      </trkpt>
      <trkpt lat="46.88131" lon="-1.0185">
        <ele>132</ele>
        <time>2022-12-01T14:27:31Z</time>
      </trkpt>
      <trkpt lat="46.88133" lon="-1.01876">
        <ele>132</ele>
        <time>2022-12-01T14:27:34Z</time>
      </trkpt>
      <trkpt lat="46.88163" lon="-1.01873">
        <ele>133</ele>
        <time>2022-12-01T14:27:40Z</time>
      </trkpt>
      <trkpt lat="46.88177" lon="-1.01877">
        <ele>134</ele>
        <time>2022-12-01T14:27:42Z</time>
      </trkpt>
      <trkpt lat="46.88189" lon="-1.01888">
        <ele>134</ele>
        <time>2022-12-01T14:27:45Z</time>
      </trkpt>
      <trkpt lat="46.88238" lon="-1.01946">
        <ele>134</ele>
        <time>2022-12-01T14:27:56Z</time>
      </trkpt>
      <trkpt lat="46.88255" lon="-1.01961">
        <ele>134</ele>
        <time>2022-12-01T14:28:00Z</time>
      </trkpt>
      <trkpt lat="46.88291" lon="-1.01986">
        <ele>135</ele>
        <time>2022-12-01T14:28:07Z</time>
      </trkpt>
      <trkpt lat="46.88354" lon="-1.02022">
        <ele>135</ele>
        <time>2022-12-01T14:28:19Z</time>
      </trkpt>
      <trkpt lat="46.88367" lon="-1.02032">
        <ele>135</ele>
        <time>2022-12-01T14:28:21Z</time>
      </trkpt>
      <trkpt lat="46.88389" lon="-1.02062">
        <ele>134</ele>
        <time>2022-12-01T14:28:27Z</time>
      </trkpt>
      <trkpt lat="46.88406" lon="-1.02077">
        <ele>133</ele>
        <time>2022-12-01T14:28:30Z</time>
      </trkpt>
      <trkpt lat="46.88424" lon="-1.02088">
        <ele>133</ele>
        <time>2022-12-01T14:28:34Z</time>
      </trkpt>
      <trkpt lat="46.88438" lon="-1.02092">
        <ele>133</ele>
        <time>2022-12-01T14:28:36Z</time>
      </trkpt>
      <trkpt lat="46.88503" lon="-1.02091">
        <ele>135</ele>
        <time>2022-12-01T14:28:48Z</time>
      </trkpt>
      <trkpt lat="46.88563" lon="-1.02105">
        <ele>138</ele>
        <time>2022-12-01T14:28:59Z</time>
      </trkpt>
      <trkpt lat="46.88605" lon="-1.02112">
        <ele>140</ele>
        <time>2022-12-01T14:29:06Z</time>
      </trkpt>
      <trkpt lat="46.88657" lon="-1.02114">
        <ele>142</ele>
        <time>2022-12-01T14:29:15Z</time>
      </trkpt>
      <trkpt lat="46.88731" lon="-1.02096">
        <ele>146</ele>
        <time>2022-12-01T14:29:29Z</time>
      </trkpt>
      <trkpt lat="46.88794" lon="-1.02087">
        <ele>150</ele>
        <time>2022-12-01T14:29:40Z</time>
      </trkpt>
      <trkpt lat="46.88822" lon="-1.02088">
        <ele>152</ele>
        <time>2022-12-01T14:29:45Z</time>
      </trkpt>
      <trkpt lat="46.88846" lon="-1.02092">
        <ele>153</ele>
        <time>2022-12-01T14:29:49Z</time>
      </trkpt>
      <trkpt lat="46.88996" lon="-1.02141">
        <ele>156</ele>
        <time>2022-12-01T14:30:17Z</time>
      </trkpt>
      <trkpt lat="46.89015" lon="-1.02144">
        <ele>156</ele>
        <time>2022-12-01T14:30:20Z</time>
      </trkpt>
      <trkpt lat="46.89034" lon="-1.02141">
        <ele>157</ele>
        <time>2022-12-01T14:30:23Z</time>
      </trkpt>
      <trkpt lat="46.89058" lon="-1.02133">
        <ele>158</ele>
        <time>2022-12-01T14:30:28Z</time>
      </trkpt>
      <trkpt lat="46.89114" lon="-1.0211">
        <ele>161</ele>
        <time>2022-12-01T14:30:38Z</time>
      </trkpt>
      <trkpt lat="46.89125" lon="-1.0211">
        <ele>162</ele>
        <time>2022-12-01T14:30:40Z</time>
      </trkpt>
      <trkpt lat="46.89139" lon="-1.02114">
        <ele>162</ele>
        <time>2022-12-01T14:30:43Z</time>
      </trkpt>
      <trkpt lat="46.89153" lon="-1.02123">
        <ele>162</ele>
        <time>2022-12-01T14:30:45Z</time>
      </trkpt>
      <trkpt lat="46.89166" lon="-1.02138">
        <ele>163</ele>
        <time>2022-12-01T14:30:48Z</time>
      </trkpt>
      <trkpt lat="46.89186" lon="-1.0215">
        <ele>164</ele>
        <time>2022-12-01T14:30:52Z</time>
      </trkpt>
      <trkpt lat="46.89207" lon="-1.02158">
        <ele>165</ele>
        <time>2022-12-01T14:30:56Z</time>
      </trkpt>
      <trkpt lat="46.89263" lon="-1.0217">
        <ele>168</ele>
        <time>2022-12-01T14:31:06Z</time>
      </trkpt>
      <trkpt lat="46.89288" lon="-1.0217">
        <ele>169</ele>
        <time>2022-12-01T14:31:11Z</time>
      </trkpt>
      <trkpt lat="46.89316" lon="-1.02166">
        <ele>171</ele>
        <time>2022-12-01T14:31:16Z</time>
      </trkpt>
      <trkpt lat="46.89358" lon="-1.02149">
        <ele>174</ele>
        <time>2022-12-01T14:31:23Z</time>
      </trkpt>
      <trkpt lat="46.8941" lon="-1.02139">
        <ele>178</ele>
        <time>2022-12-01T14:31:33Z</time>
      </trkpt>
      <trkpt lat="46.89461" lon="-1.02121">
        <ele>180</ele>
        <time>2022-12-01T14:31:42Z</time>
      </trkpt>
      <trkpt lat="46.89478" lon="-1.02118">
        <ele>181</ele>
        <time>2022-12-01T14:31:45Z</time>
      </trkpt>
      <trkpt lat="46.8954" lon="-1.02104">
        <ele>181</ele>
        <time>2022-12-01T14:31:56Z</time>
      </trkpt>
      <trkpt lat="46.89561" lon="-1.02096">
        <ele>180</ele>
        <time>2022-12-01T14:32:00Z</time>
      </trkpt>
      <trkpt lat="46.89664" lon="-1.02034">
        <ele>177</ele>
        <time>2022-12-01T14:32:20Z</time>
      </trkpt>
      <trkpt lat="46.89715" lon="-1.02017">
        <ele>178</ele>
        <time>2022-12-01T14:32:29Z</time>
      </trkpt>
      <trkpt lat="46.8974" lon="-1.02002">
        <ele>179</ele>
        <time>2022-12-01T14:32:34Z</time>
      </trkpt>
      <trkpt lat="46.89822" lon="-1.01934">
        <ele>181</ele>
        <time>2022-12-01T14:32:51Z</time>
      </trkpt>
      <trkpt lat="46.89838" lon="-1.01925">
        <ele>181</ele>
        <time>2022-12-01T14:32:54Z</time>
      </trkpt>
      <trkpt lat="46.89858" lon="-1.01923">
        <ele>179</ele>
        <time>2022-12-01T14:32:57Z</time>
      </trkpt>
      <trkpt lat="46.89885" lon="-1.01925">
        <ele>178</ele>
        <time>2022-12-01T14:33:02Z</time>
      </trkpt>
      <trkpt lat="46.89932" lon="-1.01938">
        <ele>175</ele>
        <time>2022-12-01T14:33:11Z</time>
      </trkpt>
      <trkpt lat="46.89958" lon="-1.01933">
        <ele>174</ele>
        <time>2022-12-01T14:33:15Z</time>
      </trkpt>
      <trkpt lat="46.89972" lon="-1.01924">
        <ele>172</ele>
        <time>2022-12-01T14:33:18Z</time>
      </trkpt>
      <trkpt lat="46.89985" lon="-1.01909">
        <ele>171</ele>
        <time>2022-12-01T14:33:21Z</time>
      </trkpt>
      <trkpt lat="46.89995" lon="-1.01903">
        <ele>171</ele>
        <time>2022-12-01T14:33:23Z</time>
      </trkpt>
      <trkpt lat="46.90022" lon="-1.01901">
        <ele>168</ele>
        <time>2022-12-01T14:33:28Z</time>
      </trkpt>
      <trkpt lat="46.90036" lon="-1.01903">
        <ele>166</ele>
        <time>2022-12-01T14:33:30Z</time>
      </trkpt>
      <trkpt lat="46.90064" lon="-1.01917">
        <ele>164</ele>
        <time>2022-12-01T14:33:35Z</time>
      </trkpt>
      <trkpt lat="46.90102" lon="-1.01955">
        <ele>162</ele>
        <time>2022-12-01T14:33:44Z</time>
      </trkpt>
      <trkpt lat="46.90141" lon="-1.01988">
        <ele>159</ele>
        <time>2022-12-01T14:33:52Z</time>
      </trkpt>
      <trkpt lat="46.90187" lon="-1.02017">
        <ele>155</ele>
        <time>2022-12-01T14:34:01Z</time>
      </trkpt>
      <trkpt lat="46.90213" lon="-1.02039">
        <ele>153</ele>
        <time>2022-12-01T14:34:06Z</time>
      </trkpt>
      <trkpt lat="46.9023" lon="-1.02058">
        <ele>152</ele>
        <time>2022-12-01T14:34:10Z</time>
      </trkpt>
      <trkpt lat="46.90249" lon="-1.02083">
        <ele>150</ele>
        <time>2022-12-01T14:34:14Z</time>
      </trkpt>
      <trkpt lat="46.90267" lon="-1.02117">
        <ele>151</ele>
        <time>2022-12-01T14:34:20Z</time>
      </trkpt>
      <trkpt lat="46.90294" lon="-1.02172">
        <ele>151</ele>
        <time>2022-12-01T14:34:28Z</time>
      </trkpt>
      <trkpt lat="46.90319" lon="-1.02233">
        <ele>149</ele>
        <time>2022-12-01T14:34:36Z</time>
      </trkpt>
      <trkpt lat="46.90333" lon="-1.02254">
        <ele>147</ele>
        <time>2022-12-01T14:34:40Z</time>
      </trkpt>
      <trkpt lat="46.9043" lon="-1.02354">
        <ele>147</ele>
        <time>2022-12-01T14:35:01Z</time>
      </trkpt>
      <trkpt lat="46.90443" lon="-1.02362">
        <ele>147</ele>
        <time>2022-12-01T14:35:04Z</time>
      </trkpt>
      <trkpt lat="46.90494" lon="-1.02384">
        <ele>148</ele>
        <time>2022-12-01T14:35:13Z</time>
      </trkpt>
      <trkpt lat="46.90593" lon="-1.0241">
        <ele>155</ele>
        <time>2022-12-01T14:35:31Z</time>
      </trkpt>
      <trkpt lat="46.90703" lon="-1.0243">
        <ele>155</ele>
        <time>2022-12-01T14:35:51Z</time>
      </trkpt>
      <trkpt lat="46.90902" lon="-1.02586">
        <ele>157</ele>
        <time>2022-12-01T14:36:31Z</time>
      </trkpt>
      <trkpt lat="46.91013" lon="-1.02651">
        <ele>161</ele>
        <time>2022-12-01T14:36:52Z</time>
      </trkpt>
      <trkpt lat="46.91103" lon="-1.0271">
        <ele>158</ele>
        <time>2022-12-01T14:37:10Z</time>
      </trkpt>
      <trkpt lat="46.91142" lon="-1.02753">
        <ele>154</ele>
        <time>2022-12-01T14:37:18Z</time>
      </trkpt>
      <trkpt lat="46.91156" lon="-1.0276">
        <ele>153</ele>
        <time>2022-12-01T14:37:21Z</time>
      </trkpt>
      <trkpt lat="46.9117" lon="-1.02759">
        <ele>152</ele>
        <time>2022-12-01T14:37:23Z</time>
      </trkpt>
      <trkpt lat="46.91189" lon="-1.02738">
        <ele>151</ele>
        <time>2022-12-01T14:37:28Z</time>
      </trkpt>
      <trkpt lat="46.91219" lon="-1.02681">
        <ele>148</ele>
        <time>2022-12-01T14:37:36Z</time>
      </trkpt>
      <trkpt lat="46.91315" lon="-1.02593">
        <ele>142</ele>
        <time>2022-12-01T14:37:57Z</time>
      </trkpt>
      <trkpt lat="46.91365" lon="-1.02571">
        <ele>143</ele>
        <time>2022-12-01T14:38:06Z</time>
      </trkpt>
      <trkpt lat="46.91394" lon="-1.02549">
        <ele>144</ele>
        <time>2022-12-01T14:38:12Z</time>
      </trkpt>
      <trkpt lat="46.91441" lon="-1.02523">
        <ele>147</ele>
        <time>2022-12-01T14:38:21Z</time>
      </trkpt>
      <trkpt lat="46.91496" lon="-1.02525">
        <ele>152</ele>
        <time>2022-12-01T14:38:30Z</time>
      </trkpt>
      <trkpt lat="46.91534" lon="-1.02531">
        <ele>155</ele>
        <time>2022-12-01T14:38:37Z</time>
      </trkpt>
      <trkpt lat="46.91557" lon="-1.02529">
        <ele>156</ele>
        <time>2022-12-01T14:38:41Z</time>
      </trkpt>
      <trkpt lat="46.91576" lon="-1.02537">
        <ele>157</ele>
        <time>2022-12-01T14:38:45Z</time>
      </trkpt>
      <trkpt lat="46.91592" lon="-1.02561">
        <ele>157</ele>
        <time>2022-12-01T14:38:49Z</time>
      </trkpt>
      <trkpt lat="46.91603" lon="-1.02573">
        <ele>157</ele>
        <time>2022-12-01T14:38:51Z</time>
      </trkpt>
      <trkpt lat="46.91618" lon="-1.02581">
        <ele>158</ele>
        <time>2022-12-01T14:38:54Z</time>
      </trkpt>
      <trkpt lat="46.91636" lon="-1.02581">
        <ele>159</ele>
        <time>2022-12-01T14:38:57Z</time>
      </trkpt>
      <trkpt lat="46.91663" lon="-1.0257">
        <ele>160</ele>
        <time>2022-12-01T14:39:02Z</time>
      </trkpt>
      <trkpt lat="46.91694" lon="-1.02551">
        <ele>162</ele>
        <time>2022-12-01T14:39:08Z</time>
      </trkpt>
      <trkpt lat="46.9172" lon="-1.02538">
        <ele>164</ele>
        <time>2022-12-01T14:39:13Z</time>
      </trkpt>
      <trkpt lat="46.91742" lon="-1.02535">
        <ele>166</ele>
        <time>2022-12-01T14:39:17Z</time>
      </trkpt>
      <trkpt lat="46.91789" lon="-1.02559">
        <ele>168</ele>
        <time>2022-12-01T14:39:26Z</time>
      </trkpt>
      <trkpt lat="46.91821" lon="-1.0256">
        <ele>170</ele>
        <time>2022-12-01T14:39:32Z</time>
      </trkpt>
      <trkpt lat="46.9188" lon="-1.02552">
        <ele>172</ele>
        <time>2022-12-01T14:39:42Z</time>
      </trkpt>
      <trkpt lat="46.91914" lon="-1.02538">
        <ele>174</ele>
        <time>2022-12-01T14:39:49Z</time>
      </trkpt>
      <trkpt lat="46.91978" lon="-1.02491">
        <ele>176</ele>
        <time>2022-12-01T14:40:01Z</time>
      </trkpt>
      <trkpt lat="46.92013" lon="-1.02489">
        <ele>177</ele>
        <time>2022-12-01T14:40:08Z</time>
      </trkpt>
      <trkpt lat="46.92075" lon="-1.02501">
        <ele>180</ele>
        <time>2022-12-01T14:40:19Z</time>
      </trkpt>
      <trkpt lat="46.92101" lon="-1.02502">
        <ele>182</ele>
        <time>2022-12-01T14:40:23Z</time>
      </trkpt>
      <trkpt lat="46.92166" lon="-1.02489">
        <ele>184</ele>
        <time>2022-12-01T14:40:35Z</time>
      </trkpt>
      <trkpt lat="46.9219" lon="-1.02491">
        <ele>184</ele>
        <time>2022-12-01T14:40:39Z</time>
      </trkpt>
      <trkpt lat="46.92215" lon="-1.025">
        <ele>185</ele>
        <time>2022-12-01T14:40:44Z</time>
      </trkpt>
      <trkpt lat="46.92298" lon="-1.02548">
        <ele>186</ele>
        <time>2022-12-01T14:41:00Z</time>
      </trkpt>
      <trkpt lat="46.92324" lon="-1.0256">
        <ele>187</ele>
        <time>2022-12-01T14:41:05Z</time>
      </trkpt>
      <trkpt lat="46.92354" lon="-1.02565">
        <ele>188</ele>
        <time>2022-12-01T14:41:10Z</time>
      </trkpt>
      <trkpt lat="46.92421" lon="-1.02569">
        <ele>188</ele>
        <time>2022-12-01T14:41:22Z</time>
      </trkpt>
      <trkpt lat="46.9243" lon="-1.02567">
        <ele>188</ele>
        <time>2022-12-01T14:41:23Z</time>
      </trkpt>
      <trkpt lat="46.92442" lon="-1.0256">
        <ele>188</ele>
        <time>2022-12-01T14:41:26Z</time>
      </trkpt>
      <trkpt lat="46.92449" lon="-1.02552">
        <ele>188</ele>
        <time>2022-12-01T14:41:27Z</time>
      </trkpt>
      <trkpt lat="46.92456" lon="-1.02542">
        <ele>188</ele>
        <time>2022-12-01T14:41:29Z</time>
      </trkpt>
      <trkpt lat="46.9246" lon="-1.0253">
        <ele>188</ele>
        <time>2022-12-01T14:41:31Z</time>
      </trkpt>
      <trkpt lat="46.92464" lon="-1.02508">
        <ele>189</ele>
        <time>2022-12-01T14:41:33Z</time>
      </trkpt>
      <trkpt lat="46.9246" lon="-1.0247">
        <ele>188</ele>
        <time>2022-12-01T14:41:38Z</time>
      </trkpt>
      <trkpt lat="46.92461" lon="-1.0246">
        <ele>188</ele>
        <time>2022-12-01T14:41:39Z</time>
      </trkpt>
      <trkpt lat="46.92464" lon="-1.0245">
        <ele>188</ele>
        <time>2022-12-01T14:41:41Z</time>
      </trkpt>
      <trkpt lat="46.92467" lon="-1.02442">
        <ele>188</ele>
        <time>2022-12-01T14:41:42Z</time>
      </trkpt>
      <trkpt lat="46.92478" lon="-1.0243">
        <ele>188</ele>
        <time>2022-12-01T14:41:44Z</time>
      </trkpt>
      <trkpt lat="46.92506" lon="-1.02421">
        <ele>188</ele>
        <time>2022-12-01T14:41:49Z</time>
      </trkpt>
      <trkpt lat="46.9251" lon="-1.02454">
        <ele>189</ele>
        <time>2022-12-01T14:41:53Z</time>
      </trkpt>
      <trkpt lat="46.92516" lon="-1.02484">
        <ele>189</ele>
        <time>2022-12-01T14:41:57Z</time>
      </trkpt>
      <trkpt lat="46.92543" lon="-1.02552">
        <ele>188</ele>
        <time>2022-12-01T14:42:07Z</time>
      </trkpt>
      <trkpt lat="46.92597" lon="-1.02686">
        <ele>188</ele>
        <time>2022-12-01T14:42:26Z</time>
      </trkpt>
      <trkpt lat="46.92614" lon="-1.02737">
        <ele>188</ele>
        <time>2022-12-01T14:42:33Z</time>
      </trkpt>
      <trkpt lat="46.9262" lon="-1.02763">
        <ele>188</ele>
        <time>2022-12-01T14:42:36Z</time>
      </trkpt>
      <trkpt lat="46.92686" lon="-1.03152">
        <ele>193</ele>
        <time>2022-12-01T14:43:25Z</time>
      </trkpt>
      <trkpt lat="46.92692" lon="-1.03179">
        <ele>193</ele>
        <time>2022-12-01T14:43:28Z</time>
      </trkpt>
      <trkpt lat="46.92706" lon="-1.03227">
        <ele>193</ele>
        <time>2022-12-01T14:43:34Z</time>
      </trkpt>
      <trkpt lat="46.92766" lon="-1.03364">
        <ele>195</ele>
        <time>2022-12-01T14:43:54Z</time>
      </trkpt>
      <trkpt lat="46.92772" lon="-1.03385">
        <ele>195</ele>
        <time>2022-12-01T14:43:57Z</time>
      </trkpt>
      <trkpt lat="46.92775" lon="-1.03404">
        <ele>195</ele>
        <time>2022-12-01T14:43:59Z</time>
      </trkpt>
      <trkpt lat="46.92777" lon="-1.03424">
        <ele>195</ele>
        <time>2022-12-01T14:44:02Z</time>
      </trkpt>
      <trkpt lat="46.92776" lon="-1.03492">
        <ele>194</ele>
        <time>2022-12-01T14:44:10Z</time>
      </trkpt>
      <trkpt lat="46.92779" lon="-1.03534">
        <ele>194</ele>
        <time>2022-12-01T14:44:15Z</time>
      </trkpt>
      <trkpt lat="46.92781" lon="-1.03561">
        <ele>193</ele>
        <time>2022-12-01T14:44:18Z</time>
      </trkpt>
      <trkpt lat="46.92785" lon="-1.0358">
        <ele>193</ele>
        <time>2022-12-01T14:44:21Z</time>
      </trkpt>
      <trkpt lat="46.92791" lon="-1.03599">
        <ele>194</ele>
        <time>2022-12-01T14:44:23Z</time>
      </trkpt>
      <trkpt lat="46.92817" lon="-1.03657">
        <ele>195</ele>
        <time>2022-12-01T14:44:32Z</time>
      </trkpt>
      <trkpt lat="46.92826" lon="-1.03681">
        <ele>195</ele>
        <time>2022-12-01T14:44:35Z</time>
      </trkpt>
      <trkpt lat="46.92832" lon="-1.03706">
        <ele>195</ele>
        <time>2022-12-01T14:44:38Z</time>
      </trkpt>
      <trkpt lat="46.92848" lon="-1.0381">
        <ele>195</ele>
        <time>2022-12-01T14:44:51Z</time>
      </trkpt>
      <trkpt lat="46.92856" lon="-1.03843">
        <ele>195</ele>
        <time>2022-12-01T14:44:56Z</time>
      </trkpt>
      <trkpt lat="46.92867" lon="-1.0388">
        <ele>196</ele>
        <time>2022-12-01T14:45:01Z</time>
      </trkpt>
      <trkpt lat="46.92894" lon="-1.03956">
        <ele>198</ele>
        <time>2022-12-01T14:45:11Z</time>
      </trkpt>
      <trkpt lat="46.92927" lon="-1.04031">
        <ele>198</ele>
        <time>2022-12-01T14:45:22Z</time>
      </trkpt>
      <trkpt lat="46.92935" lon="-1.04054">
        <ele>197</ele>
        <time>2022-12-01T14:45:25Z</time>
      </trkpt>
      <trkpt lat="46.92945" lon="-1.04089">
        <ele>197</ele>
        <time>2022-12-01T14:45:30Z</time>
      </trkpt>
      <trkpt lat="46.92954" lon="-1.04147">
        <ele>196</ele>
        <time>2022-12-01T14:45:37Z</time>
      </trkpt>
      <trkpt lat="46.92967" lon="-1.04255">
        <ele>198</ele>
        <time>2022-12-01T14:45:50Z</time>
      </trkpt>
      <trkpt lat="46.92971" lon="-1.04282">
        <ele>198</ele>
        <time>2022-12-01T14:45:53Z</time>
      </trkpt>
      <trkpt lat="46.92982" lon="-1.04316">
        <ele>198</ele>
        <time>2022-12-01T14:45:58Z</time>
      </trkpt>
      <trkpt lat="46.93016" lon="-1.0439">
        <ele>197</ele>
        <time>2022-12-01T14:46:09Z</time>
      </trkpt>
      <trkpt lat="46.93026" lon="-1.04415">
        <ele>196</ele>
        <time>2022-12-01T14:46:12Z</time>
      </trkpt>
      <trkpt lat="46.93081" lon="-1.04603">
        <ele>194</ele>
        <time>2022-12-01T14:46:37Z</time>
      </trkpt>
      <trkpt lat="46.93136" lon="-1.04753">
        <ele>192</ele>
        <time>2022-12-01T14:46:58Z</time>
      </trkpt>
      <trkpt lat="46.93201" lon="-1.04899">
        <ele>192</ele>
        <time>2022-12-01T14:47:19Z</time>
      </trkpt>
      <trkpt lat="46.93232" lon="-1.04957">
        <ele>193</ele>
        <time>2022-12-01T14:47:28Z</time>
      </trkpt>
      <trkpt lat="46.93289" lon="-1.05043">
        <ele>192</ele>
        <time>2022-12-01T14:47:43Z</time>
      </trkpt>
      <trkpt lat="46.933" lon="-1.05067">
        <ele>192</ele>
        <time>2022-12-01T14:47:46Z</time>
      </trkpt>
      <trkpt lat="46.93315" lon="-1.05118">
        <ele>192</ele>
        <time>2022-12-01T14:47:53Z</time>
      </trkpt>
      <trkpt lat="46.93321" lon="-1.05116">
        <ele>192</ele>
        <time>2022-12-01T14:47:54Z</time>
      </trkpt>
      <trkpt lat="46.93326" lon="-1.05117">
        <ele>192</ele>
        <time>2022-12-01T14:47:55Z</time>
      </trkpt>
      <trkpt lat="46.93331" lon="-1.05121">
        <ele>192</ele>
        <time>2022-12-01T14:47:56Z</time>
      </trkpt>
      <trkpt lat="46.93335" lon="-1.05126">
        <ele>193</ele>
        <time>2022-12-01T14:47:57Z</time>
      </trkpt>
      <trkpt lat="46.93337" lon="-1.05133">
        <ele>193</ele>
        <time>2022-12-01T14:47:58Z</time>
      </trkpt>
      <trkpt lat="46.93338" lon="-1.05141">
        <ele>193</ele>
        <time>2022-12-01T14:47:59Z</time>
      </trkpt>
      <trkpt lat="46.93337" lon="-1.05149">
        <ele>193</ele>
        <time>2022-12-01T14:48:00Z</time>
      </trkpt>
      <trkpt lat="46.93334" lon="-1.05156">
        <ele>193</ele>
        <time>2022-12-01T14:48:01Z</time>
      </trkpt>
      <trkpt lat="46.93327" lon="-1.05164">
        <ele>193</ele>
        <time>2022-12-01T14:48:02Z</time>
      </trkpt>
      <trkpt lat="46.93316" lon="-1.05164">
        <ele>193</ele>
        <time>2022-12-01T14:48:04Z</time>
      </trkpt>
      <trkpt lat="46.93311" lon="-1.0516">
        <ele>193</ele>
        <time>2022-12-01T14:48:05Z</time>
      </trkpt>
      <trkpt lat="46.93307" lon="-1.05153">
        <ele>193</ele>
        <time>2022-12-01T14:48:06Z</time>
      </trkpt>
      <trkpt lat="46.93305" lon="-1.05146">
        <ele>192</ele>
        <time>2022-12-01T14:48:07Z</time>
      </trkpt>
      <trkpt lat="46.93287" lon="-1.05156">
        <ele>192</ele>
        <time>2022-12-01T14:48:11Z</time>
      </trkpt>
      <trkpt lat="46.93265" lon="-1.05178">
        <ele>192</ele>
        <time>2022-12-01T14:48:15Z</time>
      </trkpt>
      <trkpt lat="46.93254" lon="-1.05195">
        <ele>192</ele>
        <time>2022-12-01T14:48:18Z</time>
      </trkpt>
      <trkpt lat="46.93246" lon="-1.05213">
        <ele>191</ele>
        <time>2022-12-01T14:48:21Z</time>
      </trkpt>
      <trkpt lat="46.9322" lon="-1.05287">
        <ele>189</ele>
        <time>2022-12-01T14:48:31Z</time>
      </trkpt>
      <trkpt lat="46.93211" lon="-1.0532">
        <ele>188</ele>
        <time>2022-12-01T14:48:35Z</time>
      </trkpt>
      <trkpt lat="46.93173" lon="-1.05472">
        <ele>182</ele>
        <time>2022-12-01T14:48:55Z</time>
      </trkpt>
      <trkpt lat="46.93179" lon="-1.05477">
        <ele>182</ele>
        <time>2022-12-01T14:48:56Z</time>
      </trkpt>
      <trkpt lat="46.93184" lon="-1.05484">
        <ele>182</ele>
        <time>2022-12-01T14:48:57Z</time>
      </trkpt>
      <trkpt lat="46.93186" lon="-1.05493">
        <ele>182</ele>
        <time>2022-12-01T14:48:59Z</time>
      </trkpt>
      <trkpt lat="46.93187" lon="-1.05503">
        <ele>182</ele>
        <time>2022-12-01T14:49:00Z</time>
      </trkpt>
      <trkpt lat="46.93186" lon="-1.05513">
        <ele>181</ele>
        <time>2022-12-01T14:49:01Z</time>
      </trkpt>
      <trkpt lat="46.9335" lon="-1.05592">
        <ele>185</ele>
        <time>2022-12-01T14:49:32Z</time>
      </trkpt>
      <trkpt lat="46.93427" lon="-1.05625">
        <ele>187</ele>
        <time>2022-12-01T14:49:46Z</time>
      </trkpt>
      <trkpt lat="46.93514" lon="-1.05652">
        <ele>186</ele>
        <time>2022-12-01T14:50:02Z</time>
      </trkpt>
      <trkpt lat="46.93562" lon="-1.0567">
        <ele>184</ele>
        <time>2022-12-01T14:50:11Z</time>
      </trkpt>
      <trkpt lat="46.93582" lon="-1.0568">
        <ele>184</ele>
        <time>2022-12-01T14:50:14Z</time>
      </trkpt>
      <trkpt lat="46.93628" lon="-1.05709">
        <ele>181</ele>
        <time>2022-12-01T14:50:23Z</time>
      </trkpt>
      <trkpt lat="46.93688" lon="-1.05752">
        <ele>177</ele>
        <time>2022-12-01T14:50:35Z</time>
      </trkpt>
      <trkpt lat="46.93716" lon="-1.0578">
        <ele>176</ele>
        <time>2022-12-01T14:50:41Z</time>
      </trkpt>
      <trkpt lat="46.9373" lon="-1.05799">
        <ele>175</ele>
        <time>2022-12-01T14:50:45Z</time>
      </trkpt>
      <trkpt lat="46.93745" lon="-1.05826">
        <ele>173</ele>
        <time>2022-12-01T14:50:49Z</time>
      </trkpt>
      <trkpt lat="46.9376" lon="-1.05862">
        <ele>173</ele>
        <time>2022-12-01T14:50:54Z</time>
      </trkpt>
      <trkpt lat="46.93767" lon="-1.05887">
        <ele>173</ele>
        <time>2022-12-01T14:50:57Z</time>
      </trkpt>
      <trkpt lat="46.93782" lon="-1.05971">
        <ele>172</ele>
        <time>2022-12-01T14:51:08Z</time>
      </trkpt>
      <trkpt lat="46.9379" lon="-1.06003">
        <ele>171</ele>
        <time>2022-12-01T14:51:12Z</time>
      </trkpt>
      <trkpt lat="46.938" lon="-1.0603">
        <ele>170</ele>
        <time>2022-12-01T14:51:16Z</time>
      </trkpt>
      <trkpt lat="46.9382" lon="-1.06072">
        <ele>169</ele>
        <time>2022-12-01T14:51:22Z</time>
      </trkpt>
      <trkpt lat="46.93847" lon="-1.06118">
        <ele>167</ele>
        <time>2022-12-01T14:51:29Z</time>
      </trkpt>
      <trkpt lat="46.9387" lon="-1.06147">
        <ele>166</ele>
        <time>2022-12-01T14:51:35Z</time>
      </trkpt>
      <trkpt lat="46.93905" lon="-1.06187">
        <ele>164</ele>
        <time>2022-12-01T14:51:43Z</time>
      </trkpt>
      <trkpt lat="46.93925" lon="-1.06205">
        <ele>164</ele>
        <time>2022-12-01T14:51:47Z</time>
      </trkpt>
      <trkpt lat="46.93954" lon="-1.06226">
        <ele>163</ele>
        <time>2022-12-01T14:51:53Z</time>
      </trkpt>
      <trkpt lat="46.94025" lon="-1.06262">
        <ele>162</ele>
        <time>2022-12-01T14:52:06Z</time>
      </trkpt>
      <trkpt lat="46.94055" lon="-1.06279">
        <ele>160</ele>
        <time>2022-12-01T14:52:12Z</time>
      </trkpt>
      <trkpt lat="46.94113" lon="-1.06323">
        <ele>156</ele>
        <time>2022-12-01T14:52:23Z</time>
      </trkpt>
      <trkpt lat="46.94129" lon="-1.06343">
        <ele>155</ele>
        <time>2022-12-01T14:52:27Z</time>
      </trkpt>
      <trkpt lat="46.94152" lon="-1.06385">
        <ele>153</ele>
        <time>2022-12-01T14:52:34Z</time>
      </trkpt>
      <trkpt lat="46.94158" lon="-1.06392">
        <ele>152</ele>
        <time>2022-12-01T14:52:35Z</time>
      </trkpt>
      <trkpt lat="46.9418" lon="-1.06406">
        <ele>151</ele>
        <time>2022-12-01T14:52:39Z</time>
      </trkpt>
      <trkpt lat="46.94245" lon="-1.06441">
        <ele>148</ele>
        <time>2022-12-01T14:52:52Z</time>
      </trkpt>
      <trkpt lat="46.9425" lon="-1.06446">
        <ele>148</ele>
        <time>2022-12-01T14:52:53Z</time>
      </trkpt>
      <trkpt lat="46.94266" lon="-1.06486">
        <ele>147</ele>
        <time>2022-12-01T14:52:58Z</time>
      </trkpt>
      <trkpt lat="46.94271" lon="-1.06491">
        <ele>146</ele>
        <time>2022-12-01T14:52:59Z</time>
      </trkpt>
      <trkpt lat="46.94281" lon="-1.06495">
        <ele>146</ele>
        <time>2022-12-01T14:53:01Z</time>
      </trkpt>
      <trkpt lat="46.94301" lon="-1.06493">
        <ele>145</ele>
        <time>2022-12-01T14:53:05Z</time>
      </trkpt>
      <trkpt lat="46.94314" lon="-1.06494">
        <ele>145</ele>
        <time>2022-12-01T14:53:07Z</time>
      </trkpt>
      <trkpt lat="46.94327" lon="-1.06499">
        <ele>144</ele>
        <time>2022-12-01T14:53:09Z</time>
      </trkpt>
      <trkpt lat="46.94336" lon="-1.06509">
        <ele>144</ele>
        <time>2022-12-01T14:53:11Z</time>
      </trkpt>
      <trkpt lat="46.94472" lon="-1.06748">
        <ele>132</ele>
        <time>2022-12-01T14:53:49Z</time>
      </trkpt>
      <trkpt lat="46.94477" lon="-1.06761">
        <ele>132</ele>
        <time>2022-12-01T14:53:51Z</time>
      </trkpt>
      <trkpt lat="46.94484" lon="-1.06757">
        <ele>132</ele>
        <time>2022-12-01T14:53:52Z</time>
      </trkpt>
      <trkpt lat="46.94491" lon="-1.06762">
        <ele>131</ele>
        <time>2022-12-01T14:53:54Z</time>
      </trkpt>
      <trkpt lat="46.94493" lon="-1.06774">
        <ele>131</ele>
        <time>2022-12-01T14:53:55Z</time>
      </trkpt>
      <trkpt lat="46.94488" lon="-1.06783">
        <ele>132</ele>
        <time>2022-12-01T14:53:57Z</time>
      </trkpt>
      <trkpt lat="46.94541" lon="-1.06899">
        <ele>130</ele>
        <time>2022-12-01T14:54:14Z</time>
      </trkpt>
      <trkpt lat="46.94606" lon="-1.07028">
        <ele>130</ele>
        <time>2022-12-01T14:54:33Z</time>
      </trkpt>
      <trkpt lat="46.94673" lon="-1.07145">
        <ele>130</ele>
        <time>2022-12-01T14:54:52Z</time>
      </trkpt>
      <trkpt lat="46.94719" lon="-1.07218">
        <ele>129</ele>
        <time>2022-12-01T14:55:04Z</time>
      </trkpt>
      <trkpt lat="46.94788" lon="-1.07303">
        <ele>124</ele>
        <time>2022-12-01T14:55:20Z</time>
      </trkpt>
      <trkpt lat="46.94811" lon="-1.07325">
        <ele>122</ele>
        <time>2022-12-01T14:55:25Z</time>
      </trkpt>
      <trkpt lat="46.94848" lon="-1.07354">
        <ele>120</ele>
        <time>2022-12-01T14:55:32Z</time>
      </trkpt>
      <trkpt lat="46.94871" lon="-1.07368">
        <ele>118</ele>
        <time>2022-12-01T14:55:37Z</time>
      </trkpt>
      <trkpt lat="46.94931" lon="-1.07395">
        <ele>115</ele>
        <time>2022-12-01T14:55:48Z</time>
      </trkpt>
      <trkpt lat="46.94948" lon="-1.07407">
        <ele>115</ele>
        <time>2022-12-01T14:55:51Z</time>
      </trkpt>
      <trkpt lat="46.94957" lon="-1.07416">
        <ele>115</ele>
        <time>2022-12-01T14:55:53Z</time>
      </trkpt>
      <trkpt lat="46.94972" lon="-1.07438">
        <ele>116</ele>
        <time>2022-12-01T14:55:57Z</time>
      </trkpt>
      <trkpt lat="46.94985" lon="-1.07471">
        <ele>118</ele>
        <time>2022-12-01T14:56:01Z</time>
      </trkpt>
      <trkpt lat="46.95049" lon="-1.07656">
        <ele>123</ele>
        <time>2022-12-01T14:56:27Z</time>
      </trkpt>
      <trkpt lat="46.95148" lon="-1.07928">
        <ele>120</ele>
        <time>2022-12-01T14:57:04Z</time>
      </trkpt>
      <trkpt lat="46.95157" lon="-1.07927">
        <ele>120</ele>
        <time>2022-12-01T14:57:06Z</time>
      </trkpt>
      <trkpt lat="46.95161" lon="-1.07929">
        <ele>120</ele>
        <time>2022-12-01T14:57:06Z</time>
      </trkpt>
      <trkpt lat="46.95167" lon="-1.0794">
        <ele>120</ele>
        <time>2022-12-01T14:57:08Z</time>
      </trkpt>
      <trkpt lat="46.95234" lon="-1.07892">
        <ele>122</ele>
        <time>2022-12-01T14:57:21Z</time>
      </trkpt>
      <trkpt lat="46.95265" lon="-1.07859">
        <ele>123</ele>
        <time>2022-12-01T14:57:28Z</time>
      </trkpt>
      <trkpt lat="46.95301" lon="-1.07805">
        <ele>124</ele>
        <time>2022-12-01T14:57:37Z</time>
      </trkpt>
      <trkpt lat="46.95352" lon="-1.07702">
        <ele>124</ele>
        <time>2022-12-01T14:57:53Z</time>
      </trkpt>
      <trkpt lat="46.95388" lon="-1.07639">
        <ele>124</ele>
        <time>2022-12-01T14:58:03Z</time>
      </trkpt>
      <trkpt lat="46.95415" lon="-1.07604">
        <ele>124</ele>
        <time>2022-12-01T14:58:09Z</time>
      </trkpt>
      <trkpt lat="46.95447" lon="-1.07573">
        <ele>122</ele>
        <time>2022-12-01T14:58:16Z</time>
      </trkpt>
      <trkpt lat="46.95469" lon="-1.07558">
        <ele>121</ele>
        <time>2022-12-01T14:58:20Z</time>
      </trkpt>
      <trkpt lat="46.95491" lon="-1.07547">
        <ele>119</ele>
        <time>2022-12-01T14:58:24Z</time>
      </trkpt>
      <trkpt lat="46.95538" lon="-1.07533">
        <ele>117</ele>
        <time>2022-12-01T14:58:33Z</time>
      </trkpt>
      <trkpt lat="46.95577" lon="-1.07532">
        <ele>116</ele>
        <time>2022-12-01T14:58:40Z</time>
      </trkpt>
      <trkpt lat="46.95672" lon="-1.07545">
        <ele>112</ele>
        <time>2022-12-01T14:58:57Z</time>
      </trkpt>
      <trkpt lat="46.95707" lon="-1.0754">
        <ele>111</ele>
        <time>2022-12-01T14:59:03Z</time>
      </trkpt>
      <trkpt lat="46.95732" lon="-1.0753">
        <ele>109</ele>
        <time>2022-12-01T14:59:08Z</time>
      </trkpt>
      <trkpt lat="46.95747" lon="-1.07524">
        <ele>108</ele>
        <time>2022-12-01T14:59:11Z</time>
      </trkpt>
      <trkpt lat="46.95775" lon="-1.075">
        <ele>105</ele>
        <time>2022-12-01T14:59:16Z</time>
      </trkpt>
      <trkpt lat="46.95821" lon="-1.07445">
        <ele>100</ele>
        <time>2022-12-01T14:59:27Z</time>
      </trkpt>
      <trkpt lat="46.95836" lon="-1.07436">
        <ele>99</ele>
        <time>2022-12-01T14:59:30Z</time>
      </trkpt>
      <trkpt lat="46.95862" lon="-1.07432">
        <ele>97</ele>
        <time>2022-12-01T14:59:34Z</time>
      </trkpt>
      <trkpt lat="46.95874" lon="-1.07435">
        <ele>97</ele>
        <time>2022-12-01T14:59:37Z</time>
      </trkpt>
      <trkpt lat="46.95886" lon="-1.07442">
        <ele>96</ele>
        <time>2022-12-01T14:59:39Z</time>
      </trkpt>
      <trkpt lat="46.95897" lon="-1.07452">
        <ele>96</ele>
        <time>2022-12-01T14:59:41Z</time>
      </trkpt>
      <trkpt lat="46.95907" lon="-1.07468">
        <ele>96</ele>
        <time>2022-12-01T14:59:44Z</time>
      </trkpt>
      <trkpt lat="46.95924" lon="-1.07501">
        <ele>95</ele>
        <time>2022-12-01T14:59:49Z</time>
      </trkpt>
      <trkpt lat="46.95948" lon="-1.0754">
        <ele>94</ele>
        <time>2022-12-01T14:59:55Z</time>
      </trkpt>
      <trkpt lat="46.95978" lon="-1.07572">
        <ele>94</ele>
        <time>2022-12-01T15:00:02Z</time>
      </trkpt>
      <trkpt lat="46.95997" lon="-1.07587">
        <ele>93</ele>
        <time>2022-12-01T15:00:06Z</time>
      </trkpt>
      <trkpt lat="46.9602" lon="-1.07602">
        <ele>94</ele>
        <time>2022-12-01T15:00:10Z</time>
      </trkpt>
      <trkpt lat="46.96043" lon="-1.07607">
        <ele>96</ele>
        <time>2022-12-01T15:00:14Z</time>
      </trkpt>
      <trkpt lat="46.9606" lon="-1.07608">
        <ele>97</ele>
        <time>2022-12-01T15:00:17Z</time>
      </trkpt>
      <trkpt lat="46.96082" lon="-1.07606">
        <ele>98</ele>
        <time>2022-12-01T15:00:21Z</time>
      </trkpt>
      <trkpt lat="46.96103" lon="-1.07597">
        <ele>99</ele>
        <time>2022-12-01T15:00:25Z</time>
      </trkpt>
      <trkpt lat="46.96124" lon="-1.07582">
        <ele>100</ele>
        <time>2022-12-01T15:00:29Z</time>
      </trkpt>
      <trkpt lat="46.96141" lon="-1.07565">
        <ele>101</ele>
        <time>2022-12-01T15:00:33Z</time>
      </trkpt>
      <trkpt lat="46.96171" lon="-1.0753">
        <ele>103</ele>
        <time>2022-12-01T15:00:40Z</time>
      </trkpt>
      <trkpt lat="46.96191" lon="-1.07515">
        <ele>104</ele>
        <time>2022-12-01T15:00:44Z</time>
      </trkpt>
      <trkpt lat="46.96216" lon="-1.07505">
        <ele>106</ele>
        <time>2022-12-01T15:00:48Z</time>
      </trkpt>
      <trkpt lat="46.96229" lon="-1.07506">
        <ele>107</ele>
        <time>2022-12-01T15:00:51Z</time>
      </trkpt>
      <trkpt lat="46.96297" lon="-1.0754">
        <ele>110</ele>
        <time>2022-12-01T15:01:03Z</time>
      </trkpt>
      <trkpt lat="46.96315" lon="-1.07545">
        <ele>110</ele>
        <time>2022-12-01T15:01:07Z</time>
      </trkpt>
      <trkpt lat="46.9635" lon="-1.07548">
        <ele>111</ele>
        <time>2022-12-01T15:01:13Z</time>
      </trkpt>
      <trkpt lat="46.96382" lon="-1.0754">
        <ele>112</ele>
        <time>2022-12-01T15:01:19Z</time>
      </trkpt>
      <trkpt lat="46.9648" lon="-1.07497">
        <ele>115</ele>
        <time>2022-12-01T15:01:37Z</time>
      </trkpt>
      <trkpt lat="46.96515" lon="-1.07487">
        <ele>116</ele>
        <time>2022-12-01T15:01:43Z</time>
      </trkpt>
      <trkpt lat="46.96552" lon="-1.07478">
        <ele>118</ele>
        <time>2022-12-01T15:01:50Z</time>
      </trkpt>
      <trkpt lat="46.96618" lon="-1.07472">
        <ele>119</ele>
        <time>2022-12-01T15:02:02Z</time>
      </trkpt>
      <trkpt lat="46.9672" lon="-1.07471">
        <ele>120</ele>
        <time>2022-12-01T15:02:20Z</time>
      </trkpt>
      <trkpt lat="46.96834" lon="-1.07481">
        <ele>119</ele>
        <time>2022-12-01T15:02:40Z</time>
      </trkpt>
      <trkpt lat="46.9696" lon="-1.07496">
        <ele>119</ele>
        <time>2022-12-01T15:03:03Z</time>
      </trkpt>
      <trkpt lat="46.97044" lon="-1.07512">
        <ele>120</ele>
        <time>2022-12-01T15:03:18Z</time>
      </trkpt>
      <trkpt lat="46.97153" lon="-1.07538">
        <ele>121</ele>
        <time>2022-12-01T15:03:37Z</time>
      </trkpt>
      <trkpt lat="46.97227" lon="-1.07561">
        <ele>122</ele>
        <time>2022-12-01T15:03:51Z</time>
      </trkpt>
      <trkpt lat="46.97269" lon="-1.07576">
        <ele>122</ele>
        <time>2022-12-01T15:03:59Z</time>
      </trkpt>
      <trkpt lat="46.97411" lon="-1.07638">
        <ele>121</ele>
        <time>2022-12-01T15:04:25Z</time>
      </trkpt>
      <trkpt lat="46.97497" lon="-1.07682">
        <ele>121</ele>
        <time>2022-12-01T15:04:41Z</time>
      </trkpt>
      <trkpt lat="46.9762" lon="-1.07752">
        <ele>121</ele>
        <time>2022-12-01T15:05:05Z</time>
      </trkpt>
      <trkpt lat="46.97661" lon="-1.07778">
        <ele>120</ele>
        <time>2022-12-01T15:05:13Z</time>
      </trkpt>
      <trkpt lat="46.9773" lon="-1.07827">
        <ele>119</ele>
        <time>2022-12-01T15:05:26Z</time>
      </trkpt>
      <trkpt lat="46.97769" lon="-1.07858">
        <ele>119</ele>
        <time>2022-12-01T15:05:34Z</time>
      </trkpt>
      <trkpt lat="46.9783" lon="-1.07913">
        <ele>118</ele>
        <time>2022-12-01T15:05:47Z</time>
      </trkpt>
      <trkpt lat="46.97879" lon="-1.07965">
        <ele>117</ele>
        <time>2022-12-01T15:05:58Z</time>
      </trkpt>
      <trkpt lat="46.97931" lon="-1.08019">
        <ele>117</ele>
        <time>2022-12-01T15:06:09Z</time>
      </trkpt>
      <trkpt lat="46.97978" lon="-1.08064">
        <ele>117</ele>
        <time>2022-12-01T15:06:19Z</time>
      </trkpt>
      <trkpt lat="46.9802" lon="-1.08101">
        <ele>117</ele>
        <time>2022-12-01T15:06:28Z</time>
      </trkpt>
      <trkpt lat="46.98069" lon="-1.08138">
        <ele>116</ele>
        <time>2022-12-01T15:06:37Z</time>
      </trkpt>
      <trkpt lat="46.98165" lon="-1.08201">
        <ele>113</ele>
        <time>2022-12-01T15:06:56Z</time>
      </trkpt>
      <trkpt lat="46.98337" lon="-1.08297">
        <ele>110</ele>
        <time>2022-12-01T15:07:29Z</time>
      </trkpt>
      <trkpt lat="46.98383" lon="-1.08328">
        <ele>110</ele>
        <time>2022-12-01T15:07:38Z</time>
      </trkpt>
      <trkpt lat="46.98532" lon="-1.08439">
        <ele>109</ele>
        <time>2022-12-01T15:08:08Z</time>
      </trkpt>
      <trkpt lat="46.98581" lon="-1.08472">
        <ele>109</ele>
        <time>2022-12-01T15:08:17Z</time>
      </trkpt>
      <trkpt lat="46.98657" lon="-1.08515">
        <ele>110</ele>
        <time>2022-12-01T15:08:32Z</time>
      </trkpt>
      <trkpt lat="46.98841" lon="-1.08599">
        <ele>111</ele>
        <time>2022-12-01T15:09:06Z</time>
      </trkpt>
      <trkpt lat="46.98959" lon="-1.08658">
        <ele>109</ele>
        <time>2022-12-01T15:09:28Z</time>
      </trkpt>
      <trkpt lat="46.99068" lon="-1.0872">
        <ele>109</ele>
        <time>2022-12-01T15:09:49Z</time>
      </trkpt>
      <trkpt lat="46.99102" lon="-1.0874">
        <ele>109</ele>
        <time>2022-12-01T15:09:56Z</time>
      </trkpt>
      <trkpt lat="46.99146" lon="-1.0877">
        <ele>109</ele>
        <time>2022-12-01T15:10:04Z</time>
      </trkpt>
      <trkpt lat="46.99223" lon="-1.08826">
        <ele>108</ele>
        <time>2022-12-01T15:10:20Z</time>
      </trkpt>
      <trkpt lat="46.99303" lon="-1.08895">
        <ele>108</ele>
        <time>2022-12-01T15:10:36Z</time>
      </trkpt>
      <trkpt lat="46.99357" lon="-1.08947">
        <ele>107</ele>
        <time>2022-12-01T15:10:48Z</time>
      </trkpt>
      <trkpt lat="46.99484" lon="-1.0908">
        <ele>102</ele>
        <time>2022-12-01T15:11:15Z</time>
      </trkpt>
      <trkpt lat="46.99535" lon="-1.09127">
        <ele>101</ele>
        <time>2022-12-01T15:11:26Z</time>
      </trkpt>
      <trkpt lat="46.99625" lon="-1.09196">
        <ele>100</ele>
        <time>2022-12-01T15:11:44Z</time>
      </trkpt>
      <trkpt lat="46.99689" lon="-1.09239">
        <ele>99</ele>
        <time>2022-12-01T15:11:57Z</time>
      </trkpt>
      <trkpt lat="46.99759" lon="-1.09283">
        <ele>100</ele>
        <time>2022-12-01T15:12:10Z</time>
      </trkpt>
      <trkpt lat="46.99884" lon="-1.09356">
        <ele>103</ele>
        <time>2022-12-01T15:12:34Z</time>
      </trkpt>
      <trkpt lat="47.00007" lon="-1.09432">
        <ele>104</ele>
        <time>2022-12-01T15:12:58Z</time>
      </trkpt>
      <trkpt lat="47.0003" lon="-1.09445">
        <ele>104</ele>
        <time>2022-12-01T15:13:02Z</time>
      </trkpt>
      <trkpt lat="47.00146" lon="-1.09526">
        <ele>104</ele>
        <time>2022-12-01T15:13:25Z</time>
      </trkpt>
      <trkpt lat="47.00198" lon="-1.09569">
        <ele>104</ele>
        <time>2022-12-01T15:13:36Z</time>
      </trkpt>
      <trkpt lat="47.00236" lon="-1.09608">
        <ele>105</ele>
        <time>2022-12-01T15:13:44Z</time>
      </trkpt>
      <trkpt lat="47.00302" lon="-1.09687">
        <ele>106</ele>
        <time>2022-12-01T15:13:59Z</time>
      </trkpt>
      <trkpt lat="47.00354" lon="-1.0976">
        <ele>107</ele>
        <time>2022-12-01T15:14:12Z</time>
      </trkpt>
      <trkpt lat="47.00383" lon="-1.09808">
        <ele>106</ele>
        <time>2022-12-01T15:14:20Z</time>
      </trkpt>
      <trkpt lat="47.00422" lon="-1.09874">
        <ele>106</ele>
        <time>2022-12-01T15:14:30Z</time>
      </trkpt>
      <trkpt lat="47.00477" lon="-1.0998">
        <ele>105</ele>
        <time>2022-12-01T15:14:46Z</time>
      </trkpt>
      <trkpt lat="47.00538" lon="-1.10106">
        <ele>105</ele>
        <time>2022-12-01T15:15:05Z</time>
      </trkpt>
      <trkpt lat="47.00576" lon="-1.10194">
        <ele>105</ele>
        <time>2022-12-01T15:15:18Z</time>
      </trkpt>
      <trkpt lat="47.00632" lon="-1.10339">
        <ele>104</ele>
        <time>2022-12-01T15:15:38Z</time>
      </trkpt>
      <trkpt lat="47.00682" lon="-1.10484">
        <ele>104</ele>
        <time>2022-12-01T15:15:58Z</time>
      </trkpt>
      <trkpt lat="47.00706" lon="-1.10567">
        <ele>104</ele>
        <time>2022-12-01T15:16:09Z</time>
      </trkpt>
      <trkpt lat="47.00716" lon="-1.10607">
        <ele>103</ele>
        <time>2022-12-01T15:16:14Z</time>
      </trkpt>
      <trkpt lat="47.00735" lon="-1.10701">
        <ele>102</ele>
        <time>2022-12-01T15:16:26Z</time>
      </trkpt>
      <trkpt lat="47.00744" lon="-1.10771">
        <ele>100</ele>
        <time>2022-12-01T15:16:34Z</time>
      </trkpt>
      <trkpt lat="47.00751" lon="-1.10852">
        <ele>99</ele>
        <time>2022-12-01T15:16:44Z</time>
      </trkpt>
      <trkpt lat="47.00755" lon="-1.10935">
        <ele>99</ele>
        <time>2022-12-01T15:16:54Z</time>
      </trkpt>
      <trkpt lat="47.00761" lon="-1.10998">
        <ele>98</ele>
        <time>2022-12-01T15:17:02Z</time>
      </trkpt>
      <trkpt lat="47.00776" lon="-1.1111">
        <ele>96</ele>
        <time>2022-12-01T15:17:16Z</time>
      </trkpt>
      <trkpt lat="47.00795" lon="-1.11197">
        <ele>94</ele>
        <time>2022-12-01T15:17:27Z</time>
      </trkpt>
      <trkpt lat="47.00798" lon="-1.11201">
        <ele>94</ele>
        <time>2022-12-01T15:17:28Z</time>
      </trkpt>
      <trkpt lat="47.00815" lon="-1.11267">
        <ele>93</ele>
        <time>2022-12-01T15:17:36Z</time>
      </trkpt>
      <trkpt lat="47.00814" lon="-1.11273">
        <ele>93</ele>
        <time>2022-12-01T15:17:37Z</time>
      </trkpt>
      <trkpt lat="47.00833" lon="-1.11339">
        <ele>91</ele>
        <time>2022-12-01T15:17:46Z</time>
      </trkpt>
      <trkpt lat="47.00853" lon="-1.11395">
        <ele>88</ele>
        <time>2022-12-01T15:17:53Z</time>
      </trkpt>
      <trkpt lat="47.00871" lon="-1.11427">
        <ele>87</ele>
        <time>2022-12-01T15:17:59Z</time>
      </trkpt>
      <trkpt lat="47.00888" lon="-1.11453">
        <ele>86</ele>
        <time>2022-12-01T15:18:03Z</time>
      </trkpt>
      <trkpt lat="47.00931" lon="-1.11498">
        <ele>84</ele>
        <time>2022-12-01T15:18:12Z</time>
      </trkpt>
      <trkpt lat="47.00965" lon="-1.11526">
        <ele>82</ele>
        <time>2022-12-01T15:18:19Z</time>
      </trkpt>
      <trkpt lat="47.0099" lon="-1.1154">
        <ele>81</ele>
        <time>2022-12-01T15:18:24Z</time>
      </trkpt>
      <trkpt lat="47.01031" lon="-1.11551">
        <ele>80</ele>
        <time>2022-12-01T15:18:31Z</time>
      </trkpt>
      <trkpt lat="47.01072" lon="-1.11548">
        <ele>80</ele>
        <time>2022-12-01T15:18:39Z</time>
      </trkpt>
      <trkpt lat="47.01138" lon="-1.11526">
        <ele>79</ele>
        <time>2022-12-01T15:18:51Z</time>
      </trkpt>
      <trkpt lat="47.01187" lon="-1.11517">
        <ele>79</ele>
        <time>2022-12-01T15:19:00Z</time>
      </trkpt>
      <trkpt lat="47.01205" lon="-1.11517">
        <ele>78</ele>
        <time>2022-12-01T15:19:03Z</time>
      </trkpt>
      <trkpt lat="47.0123" lon="-1.11521">
        <ele>78</ele>
        <time>2022-12-01T15:19:07Z</time>
      </trkpt>
      <trkpt lat="47.01264" lon="-1.11536">
        <ele>77</ele>
        <time>2022-12-01T15:19:14Z</time>
      </trkpt>
      <trkpt lat="47.0133" lon="-1.11569">
        <ele>77</ele>
        <time>2022-12-01T15:19:26Z</time>
      </trkpt>
      <trkpt lat="47.01356" lon="-1.11579">
        <ele>75</ele>
        <time>2022-12-01T15:19:31Z</time>
      </trkpt>
      <trkpt lat="47.01396" lon="-1.1158">
        <ele>73</ele>
        <time>2022-12-01T15:19:38Z</time>
      </trkpt>
      <trkpt lat="47.01419" lon="-1.11575">
        <ele>72</ele>
        <time>2022-12-01T15:19:42Z</time>
      </trkpt>
      <trkpt lat="47.01446" lon="-1.11561">
        <ele>70</ele>
        <time>2022-12-01T15:19:47Z</time>
      </trkpt>
      <trkpt lat="47.01474" lon="-1.11538">
        <ele>68</ele>
        <time>2022-12-01T15:19:53Z</time>
      </trkpt>
      <trkpt lat="47.01496" lon="-1.11507">
        <ele>69</ele>
        <time>2022-12-01T15:19:58Z</time>
      </trkpt>
      <trkpt lat="47.01505" lon="-1.11506">
        <ele>68</ele>
        <time>2022-12-01T15:20:00Z</time>
      </trkpt>
      <trkpt lat="47.01508" lon="-1.11509">
        <ele>68</ele>
        <time>2022-12-01T15:20:00Z</time>
      </trkpt>
      <trkpt lat="47.0153" lon="-1.11447">
        <ele>70</ele>
        <time>2022-12-01T15:20:09Z</time>
      </trkpt>
      <trkpt lat="47.01546" lon="-1.1139">
        <ele>68</ele>
        <time>2022-12-01T15:20:16Z</time>
      </trkpt>
      <trkpt lat="47.01579" lon="-1.11301">
        <ele>56</ele>
        <time>2022-12-01T15:20:29Z</time>
      </trkpt>
      <trkpt lat="47.01594" lon="-1.11226">
        <ele>50</ele>
        <time>2022-12-01T15:20:38Z</time>
      </trkpt>
      <trkpt lat="47.016" lon="-1.11176">
        <ele>50</ele>
        <time>2022-12-01T15:20:44Z</time>
      </trkpt>
      <trkpt lat="47.01607" lon="-1.11112">
        <ele>51</ele>
        <time>2022-12-01T15:20:52Z</time>
      </trkpt>
      <trkpt lat="47.01614" lon="-1.11053">
        <ele>52</ele>
        <time>2022-12-01T15:20:59Z</time>
      </trkpt>
      <trkpt lat="47.01622" lon="-1.11016">
        <ele>53</ele>
        <time>2022-12-01T15:21:04Z</time>
      </trkpt>
      <trkpt lat="47.01634" lon="-1.10987">
        <ele>55</ele>
        <time>2022-12-01T15:21:08Z</time>
      </trkpt>
      <trkpt lat="47.01653" lon="-1.10954">
        <ele>57</ele>
        <time>2022-12-01T15:21:14Z</time>
      </trkpt>
      <trkpt lat="47.01662" lon="-1.10943">
        <ele>58</ele>
        <time>2022-12-01T15:21:16Z</time>
      </trkpt>
      <trkpt lat="47.01715" lon="-1.10904">
        <ele>64</ele>
        <time>2022-12-01T15:21:26Z</time>
      </trkpt>
      <trkpt lat="47.01733" lon="-1.10894">
        <ele>65</ele>
        <time>2022-12-01T15:21:30Z</time>
      </trkpt>
      <trkpt lat="47.01748" lon="-1.10893">
        <ele>67</ele>
        <time>2022-12-01T15:21:32Z</time>
      </trkpt>
      <trkpt lat="47.01782" lon="-1.10896">
        <ele>70</ele>
        <time>2022-12-01T15:21:38Z</time>
      </trkpt>
      <trkpt lat="47.01799" lon="-1.10892">
        <ele>72</ele>
        <time>2022-12-01T15:21:41Z</time>
      </trkpt>
      <trkpt lat="47.01831" lon="-1.10874">
        <ele>75</ele>
        <time>2022-12-01T15:21:47Z</time>
      </trkpt>
      <trkpt lat="47.01851" lon="-1.10859">
        <ele>75</ele>
        <time>2022-12-01T15:21:51Z</time>
      </trkpt>
      <trkpt lat="47.0188" lon="-1.10834">
        <ele>76</ele>
        <time>2022-12-01T15:21:57Z</time>
      </trkpt>
      <trkpt lat="47.01964" lon="-1.10755">
        <ele>81</ele>
        <time>2022-12-01T15:22:15Z</time>
      </trkpt>
      <trkpt lat="47.01978" lon="-1.10739">
        <ele>82</ele>
        <time>2022-12-01T15:22:18Z</time>
      </trkpt>
      <trkpt lat="47.02015" lon="-1.10681">
        <ele>83</ele>
        <time>2022-12-01T15:22:28Z</time>
      </trkpt>
      <trkpt lat="47.02039" lon="-1.10657">
        <ele>85</ele>
        <time>2022-12-01T15:22:33Z</time>
      </trkpt>
      <trkpt lat="47.02097" lon="-1.1061">
        <ele>87</ele>
        <time>2022-12-01T15:22:45Z</time>
      </trkpt>
      <trkpt lat="47.02102" lon="-1.10617">
        <ele>87</ele>
        <time>2022-12-01T15:22:46Z</time>
      </trkpt>
      <trkpt lat="47.02126" lon="-1.10662">
        <ele>89</ele>
        <time>2022-12-01T15:22:53Z</time>
      </trkpt>
      <trkpt lat="47.0226" lon="-1.10897">
        <ele>91</ele>
        <time>2022-12-01T15:23:30Z</time>
      </trkpt>
      <trkpt lat="47.02276" lon="-1.10922">
        <ele>91</ele>
        <time>2022-12-01T15:23:34Z</time>
      </trkpt>
      <trkpt lat="47.02296" lon="-1.10946">
        <ele>90</ele>
        <time>2022-12-01T15:23:39Z</time>
      </trkpt>
      <trkpt lat="47.0235" lon="-1.10985">
        <ele>86</ele>
        <time>2022-12-01T15:23:50Z</time>
      </trkpt>
      <trkpt lat="47.02374" lon="-1.1101">
        <ele>85</ele>
        <time>2022-12-01T15:23:55Z</time>
      </trkpt>
      <trkpt lat="47.02593" lon="-1.11332">
        <ele>93</ele>
        <time>2022-12-01T15:24:50Z</time>
      </trkpt>
      <trkpt lat="47.0261" lon="-1.1136">
        <ele>93</ele>
        <time>2022-12-01T15:24:55Z</time>
      </trkpt>
      <trkpt lat="47.02624" lon="-1.11388">
        <ele>94</ele>
        <time>2022-12-01T15:24:59Z</time>
      </trkpt>
      <trkpt lat="47.02637" lon="-1.11419">
        <ele>93</ele>
        <time>2022-12-01T15:25:03Z</time>
      </trkpt>
      <trkpt lat="47.02712" lon="-1.1166">
        <ele>90</ele>
        <time>2022-12-01T15:25:35Z</time>
      </trkpt>
      <trkpt lat="47.02725" lon="-1.11682">
        <ele>89</ele>
        <time>2022-12-01T15:25:39Z</time>
      </trkpt>
      <trkpt lat="47.0274" lon="-1.11695">
        <ele>89</ele>
        <time>2022-12-01T15:25:42Z</time>
      </trkpt>
      <trkpt lat="47.02748" lon="-1.11698">
        <ele>89</ele>
        <time>2022-12-01T15:25:44Z</time>
      </trkpt>
      <trkpt lat="47.02763" lon="-1.11697">
        <ele>88</ele>
        <time>2022-12-01T15:25:46Z</time>
      </trkpt>
      <trkpt lat="47.02827" lon="-1.11682">
        <ele>88</ele>
        <time>2022-12-01T15:25:58Z</time>
      </trkpt>
      <trkpt lat="47.02852" lon="-1.11681">
        <ele>87</ele>
        <time>2022-12-01T15:26:02Z</time>
      </trkpt>
      <trkpt lat="47.02963" lon="-1.11677">
        <ele>83</ele>
        <time>2022-12-01T15:26:22Z</time>
      </trkpt>
      <trkpt lat="47.03025" lon="-1.11678">
        <ele>83</ele>
        <time>2022-12-01T15:26:33Z</time>
      </trkpt>
      <trkpt lat="47.0307" lon="-1.11683">
        <ele>85</ele>
        <time>2022-12-01T15:26:41Z</time>
      </trkpt>
      <trkpt lat="47.03134" lon="-1.11695">
        <ele>88</ele>
        <time>2022-12-01T15:26:53Z</time>
      </trkpt>
      <trkpt lat="47.0315" lon="-1.11703">
        <ele>89</ele>
        <time>2022-12-01T15:26:56Z</time>
      </trkpt>
      <trkpt lat="47.03181" lon="-1.11726">
        <ele>91</ele>
        <time>2022-12-01T15:27:02Z</time>
      </trkpt>
      <trkpt lat="47.03204" lon="-1.11739">
        <ele>92</ele>
        <time>2022-12-01T15:27:06Z</time>
      </trkpt>
      <trkpt lat="47.03278" lon="-1.11765">
        <ele>96</ele>
        <time>2022-12-01T15:27:20Z</time>
      </trkpt>
      <trkpt lat="47.03265" lon="-1.11942">
        <ele>88</ele>
        <time>2022-12-01T15:27:41Z</time>
      </trkpt>
      <trkpt lat="47.03258" lon="-1.12017">
        <ele>86</ele>
        <time>2022-12-01T15:27:50Z</time>
      </trkpt>
      <trkpt lat="47.03248" lon="-1.12062">
        <ele>85</ele>
        <time>2022-12-01T15:27:56Z</time>
      </trkpt>
      <trkpt lat="47.03222" lon="-1.12159">
        <ele>88</ele>
        <time>2022-12-01T15:28:09Z</time>
      </trkpt>
      <trkpt lat="47.03214" lon="-1.12195">
        <ele>89</ele>
        <time>2022-12-01T15:28:13Z</time>
      </trkpt>
      <trkpt lat="47.0321" lon="-1.1225">
        <ele>90</ele>
        <time>2022-12-01T15:28:20Z</time>
      </trkpt>
      <trkpt lat="47.03211" lon="-1.12292">
        <ele>91</ele>
        <time>2022-12-01T15:28:25Z</time>
      </trkpt>
      <trkpt lat="47.03214" lon="-1.12327">
        <ele>91</ele>
        <time>2022-12-01T15:28:29Z</time>
      </trkpt>
      <trkpt lat="47.0322" lon="-1.1237">
        <ele>92</ele>
        <time>2022-12-01T15:28:35Z</time>
      </trkpt>
      <trkpt lat="47.03223" lon="-1.12384">
        <ele>92</ele>
        <time>2022-12-01T15:28:37Z</time>
      </trkpt>
      <trkpt lat="47.03232" lon="-1.12384">
        <ele>92</ele>
        <time>2022-12-01T15:28:38Z</time>
      </trkpt>
      <trkpt lat="47.03239" lon="-1.12391">
        <ele>93</ele>
        <time>2022-12-01T15:28:40Z</time>
      </trkpt>
      <trkpt lat="47.03243" lon="-1.12403">
        <ele>93</ele>
        <time>2022-12-01T15:28:41Z</time>
      </trkpt>
      <trkpt lat="47.03241" lon="-1.12417">
        <ele>93</ele>
        <time>2022-12-01T15:28:43Z</time>
      </trkpt>
      <trkpt lat="47.03237" lon="-1.12422">
        <ele>93</ele>
        <time>2022-12-01T15:28:44Z</time>
      </trkpt>
      <trkpt lat="47.03228" lon="-1.12427">
        <ele>92</ele>
        <time>2022-12-01T15:28:46Z</time>
      </trkpt>
      <trkpt lat="47.03223" lon="-1.12426">
        <ele>92</ele>
        <time>2022-12-01T15:28:47Z</time>
      </trkpt>
      <trkpt lat="47.03162" lon="-1.12674">
        <ele>92</ele>
        <time>2022-12-01T15:29:19Z</time>
      </trkpt>
      <trkpt lat="47.03142" lon="-1.12759">
        <ele>90</ele>
        <time>2022-12-01T15:29:29Z</time>
      </trkpt>
      <trkpt lat="47.03128" lon="-1.12834">
        <ele>90</ele>
        <time>2022-12-01T15:29:39Z</time>
      </trkpt>
      <trkpt lat="47.03119" lon="-1.12856">
        <ele>90</ele>
        <time>2022-12-01T15:29:42Z</time>
      </trkpt>
      <trkpt lat="47.03108" lon="-1.12876">
        <ele>89</ele>
        <time>2022-12-01T15:29:45Z</time>
      </trkpt>
      <trkpt lat="47.03077" lon="-1.12923">
        <ele>89</ele>
        <time>2022-12-01T15:29:53Z</time>
      </trkpt>
      <trkpt lat="47.0306" lon="-1.12953">
        <ele>88</ele>
        <time>2022-12-01T15:29:58Z</time>
      </trkpt>
      <trkpt lat="47.03051" lon="-1.12975">
        <ele>87</ele>
        <time>2022-12-01T15:30:01Z</time>
      </trkpt>
      <trkpt lat="47.02916" lon="-1.13338">
        <ele>83</ele>
        <time>2022-12-01T15:30:51Z</time>
      </trkpt>
      <trkpt lat="47.02905" lon="-1.13374">
        <ele>82</ele>
        <time>2022-12-01T15:30:56Z</time>
      </trkpt>
      <trkpt lat="47.02886" lon="-1.13448">
        <ele>81</ele>
        <time>2022-12-01T15:31:05Z</time>
      </trkpt>
      <trkpt lat="47.0286" lon="-1.13584">
        <ele>80</ele>
        <time>2022-12-01T15:31:23Z</time>
      </trkpt>
      <trkpt lat="47.02849" lon="-1.13647">
        <ele>76</ele>
        <time>2022-12-01T15:31:30Z</time>
      </trkpt>
      <trkpt lat="47.02841" lon="-1.13762">
        <ele>68</ele>
        <time>2022-12-01T15:31:44Z</time>
      </trkpt>
      <trkpt lat="47.02833" lon="-1.13801">
        <ele>67</ele>
        <time>2022-12-01T15:31:49Z</time>
      </trkpt>
      <trkpt lat="47.02824" lon="-1.13818">
        <ele>67</ele>
        <time>2022-12-01T15:31:52Z</time>
      </trkpt>
      <trkpt lat="47.02816" lon="-1.13827">
        <ele>66</ele>
        <time>2022-12-01T15:31:54Z</time>
      </trkpt>
      <trkpt lat="47.02804" lon="-1.13836">
        <ele>66</ele>
        <time>2022-12-01T15:31:56Z</time>
      </trkpt>
      <trkpt lat="47.02747" lon="-1.13842">
        <ele>63</ele>
        <time>2022-12-01T15:32:06Z</time>
      </trkpt>
      <trkpt lat="47.02733" lon="-1.13848">
        <ele>61</ele>
        <time>2022-12-01T15:32:09Z</time>
      </trkpt>
      <trkpt lat="47.0271" lon="-1.13866">
        <ele>59</ele>
        <time>2022-12-01T15:32:14Z</time>
      </trkpt>
      <trkpt lat="47.02688" lon="-1.13893">
        <ele>57</ele>
        <time>2022-12-01T15:32:19Z</time>
      </trkpt>
      <trkpt lat="47.02676" lon="-1.13924">
        <ele>55</ele>
        <time>2022-12-01T15:32:23Z</time>
      </trkpt>
      <trkpt lat="47.02672" lon="-1.13939">
        <ele>55</ele>
        <time>2022-12-01T15:32:25Z</time>
      </trkpt>
      <trkpt lat="47.02671" lon="-1.13964">
        <ele>55</ele>
        <time>2022-12-01T15:32:28Z</time>
      </trkpt>
      <trkpt lat="47.02673" lon="-1.14002">
        <ele>55</ele>
        <time>2022-12-01T15:32:33Z</time>
      </trkpt>
      <trkpt lat="47.02681" lon="-1.14044">
        <ele>55</ele>
        <time>2022-12-01T15:32:38Z</time>
      </trkpt>
      <trkpt lat="47.02721" lon="-1.14225">
        <ele>54</ele>
        <time>2022-12-01T15:33:01Z</time>
      </trkpt>
      <trkpt lat="47.02724" lon="-1.14247">
        <ele>54</ele>
        <time>2022-12-01T15:33:04Z</time>
      </trkpt>
      <trkpt lat="47.02725" lon="-1.14276">
        <ele>53</ele>
        <time>2022-12-01T15:33:07Z</time>
      </trkpt>
      <trkpt lat="47.02724" lon="-1.14367">
        <ele>51</ele>
        <time>2022-12-01T15:33:18Z</time>
      </trkpt>
      <trkpt lat="47.02729" lon="-1.14406">
        <ele>50</ele>
        <time>2022-12-01T15:33:23Z</time>
      </trkpt>
      <trkpt lat="47.02743" lon="-1.14453">
        <ele>49</ele>
        <time>2022-12-01T15:33:29Z</time>
      </trkpt>
      <trkpt lat="47.0275" lon="-1.1447">
        <ele>49</ele>
        <time>2022-12-01T15:33:32Z</time>
      </trkpt>
      <trkpt lat="47.02771" lon="-1.14507">
        <ele>49</ele>
        <time>2022-12-01T15:33:38Z</time>
      </trkpt>
      <trkpt lat="47.02859" lon="-1.1463">
        <ele>49</ele>
        <time>2022-12-01T15:33:59Z</time>
      </trkpt>
      <trkpt lat="47.02916" lon="-1.14692">
        <ele>48</ele>
        <time>2022-12-01T15:34:12Z</time>
      </trkpt>
      <trkpt lat="47.02929" lon="-1.14709">
        <ele>48</ele>
        <time>2022-12-01T15:34:15Z</time>
      </trkpt>
      <trkpt lat="47.02936" lon="-1.14722">
        <ele>47</ele>
        <time>2022-12-01T15:34:17Z</time>
      </trkpt>
      <trkpt lat="47.02938" lon="-1.1473">
        <ele>47</ele>
        <time>2022-12-01T15:34:18Z</time>
      </trkpt>
      <trkpt lat="47.02941" lon="-1.14748">
        <ele>47</ele>
        <time>2022-12-01T15:34:20Z</time>
      </trkpt>
      <trkpt lat="47.0294" lon="-1.1476">
        <ele>46</ele>
        <time>2022-12-01T15:34:22Z</time>
      </trkpt>
      <trkpt lat="47.02936" lon="-1.14774">
        <ele>46</ele>
        <time>2022-12-01T15:34:24Z</time>
      </trkpt>
      <trkpt lat="47.02933" lon="-1.14781">
        <ele>45</ele>
        <time>2022-12-01T15:34:25Z</time>
      </trkpt>
      <trkpt lat="47.02905" lon="-1.14836">
        <ele>43</ele>
        <time>2022-12-01T15:34:33Z</time>
      </trkpt>
      <trkpt lat="47.02891" lon="-1.14871">
        <ele>43</ele>
        <time>2022-12-01T15:34:38Z</time>
      </trkpt>
      <trkpt lat="47.02889" lon="-1.14886">
        <ele>43</ele>
        <time>2022-12-01T15:34:40Z</time>
      </trkpt>
      <trkpt lat="47.02893" lon="-1.15004">
        <ele>45</ele>
        <time>2022-12-01T15:34:54Z</time>
      </trkpt>
      <trkpt lat="47.02887" lon="-1.15078">
        <ele>47</ele>
        <time>2022-12-01T15:35:03Z</time>
      </trkpt>
      <trkpt lat="47.02884" lon="-1.15097">
        <ele>48</ele>
        <time>2022-12-01T15:35:05Z</time>
      </trkpt>
      <trkpt lat="47.0288" lon="-1.15109">
        <ele>48</ele>
        <time>2022-12-01T15:35:07Z</time>
      </trkpt>
      <trkpt lat="47.02872" lon="-1.1512">
        <ele>49</ele>
        <time>2022-12-01T15:35:09Z</time>
      </trkpt>
      <trkpt lat="47.02859" lon="-1.15129">
        <ele>50</ele>
        <time>2022-12-01T15:35:11Z</time>
      </trkpt>
      <trkpt lat="47.02639" lon="-1.15224">
        <ele>73</ele>
        <time>2022-12-01T15:35:52Z</time>
      </trkpt>
      <trkpt lat="47.02562" lon="-1.1529">
        <ele>78</ele>
        <time>2022-12-01T15:36:08Z</time>
      </trkpt>
      <trkpt lat="47.02398" lon="-1.15456">
        <ele>88</ele>
        <time>2022-12-01T15:36:44Z</time>
      </trkpt>
      <trkpt lat="47.02389" lon="-1.1547">
        <ele>88</ele>
        <time>2022-12-01T15:36:46Z</time>
      </trkpt>
      <trkpt lat="47.02384" lon="-1.15482">
        <ele>88</ele>
        <time>2022-12-01T15:36:48Z</time>
      </trkpt>
      <trkpt lat="47.02352" lon="-1.15573">
        <ele>89</ele>
        <time>2022-12-01T15:37:00Z</time>
      </trkpt>
      <trkpt lat="47.02337" lon="-1.15602">
        <ele>90</ele>
        <time>2022-12-01T15:37:04Z</time>
      </trkpt>
      <trkpt lat="47.02324" lon="-1.15622">
        <ele>90</ele>
        <time>2022-12-01T15:37:08Z</time>
      </trkpt>
      <trkpt lat="47.02302" lon="-1.1564">
        <ele>90</ele>
        <time>2022-12-01T15:37:12Z</time>
      </trkpt>
      <trkpt lat="47.0229" lon="-1.15646">
        <ele>91</ele>
        <time>2022-12-01T15:37:15Z</time>
      </trkpt>
      <trkpt lat="47.02244" lon="-1.15656">
        <ele>91</ele>
        <time>2022-12-01T15:37:23Z</time>
      </trkpt>
      <trkpt lat="47.0222" lon="-1.15666">
        <ele>91</ele>
        <time>2022-12-01T15:37:27Z</time>
      </trkpt>
      <trkpt lat="47.02206" lon="-1.15685">
        <ele>91</ele>
        <time>2022-12-01T15:37:31Z</time>
      </trkpt>
      <trkpt lat="47.02108" lon="-1.1585">
        <ele>90</ele>
        <time>2022-12-01T15:37:57Z</time>
      </trkpt>
      <trkpt lat="47.02016" lon="-1.16001">
        <ele>89</ele>
        <time>2022-12-01T15:38:22Z</time>
      </trkpt>
      <trkpt lat="47.01991" lon="-1.16061">
        <ele>89</ele>
        <time>2022-12-01T15:38:30Z</time>
      </trkpt>
      <trkpt lat="47.01955" lon="-1.16118">
        <ele>88</ele>
        <time>2022-12-01T15:38:40Z</time>
      </trkpt>
      <trkpt lat="47.01935" lon="-1.16157">
        <ele>88</ele>
        <time>2022-12-01T15:38:46Z</time>
      </trkpt>
      <trkpt lat="47.01913" lon="-1.16211">
        <ele>89</ele>
        <time>2022-12-01T15:38:53Z</time>
      </trkpt>
      <trkpt lat="47.01902" lon="-1.16247">
        <ele>89</ele>
        <time>2022-12-01T15:38:58Z</time>
      </trkpt>
      <trkpt lat="47.01891" lon="-1.16275">
        <ele>89</ele>
        <time>2022-12-01T15:39:02Z</time>
      </trkpt>
      <trkpt lat="47.01878" lon="-1.16298">
        <ele>89</ele>
        <time>2022-12-01T15:39:06Z</time>
      </trkpt>
      <trkpt lat="47.01859" lon="-1.16321">
        <ele>89</ele>
        <time>2022-12-01T15:39:10Z</time>
      </trkpt>
      <trkpt lat="47.01851" lon="-1.16337">
        <ele>88</ele>
        <time>2022-12-01T15:39:12Z</time>
      </trkpt>
      <trkpt lat="47.01812" lon="-1.16437">
        <ele>86</ele>
        <time>2022-12-01T15:39:26Z</time>
      </trkpt>
      <trkpt lat="47.01803" lon="-1.16458">
        <ele>86</ele>
        <time>2022-12-01T15:39:29Z</time>
      </trkpt>
      <trkpt lat="47.01786" lon="-1.16487">
        <ele>86</ele>
        <time>2022-12-01T15:39:34Z</time>
      </trkpt>
      <trkpt lat="47.01733" lon="-1.16568">
        <ele>86</ele>
        <time>2022-12-01T15:39:48Z</time>
      </trkpt>
      <trkpt lat="47.01715" lon="-1.16587">
        <ele>86</ele>
        <time>2022-12-01T15:39:52Z</time>
      </trkpt>
      <trkpt lat="47.01683" lon="-1.16611">
        <ele>86</ele>
        <time>2022-12-01T15:39:58Z</time>
      </trkpt>
      <trkpt lat="47.01673" lon="-1.16622">
        <ele>86</ele>
        <time>2022-12-01T15:40:00Z</time>
      </trkpt>
      <trkpt lat="47.01667" lon="-1.16637">
        <ele>85</ele>
        <time>2022-12-01T15:40:02Z</time>
      </trkpt>
      <trkpt lat="47.01639" lon="-1.16757">
        <ele>84</ele>
        <time>2022-12-01T15:40:18Z</time>
      </trkpt>
      <trkpt lat="47.01638" lon="-1.16779">
        <ele>83</ele>
        <time>2022-12-01T15:40:20Z</time>
      </trkpt>
      <trkpt lat="47.01643" lon="-1.16852">
        <ele>83</ele>
        <time>2022-12-01T15:40:29Z</time>
      </trkpt>
      <trkpt lat="47.01642" lon="-1.16881">
        <ele>82</ele>
        <time>2022-12-01T15:40:33Z</time>
      </trkpt>
      <trkpt lat="47.01639" lon="-1.16907">
        <ele>82</ele>
        <time>2022-12-01T15:40:36Z</time>
      </trkpt>
      <trkpt lat="47.01578" lon="-1.17194">
        <ele>75</ele>
        <time>2022-12-01T15:41:12Z</time>
      </trkpt>
      <trkpt lat="47.01574" lon="-1.17245">
        <ele>74</ele>
        <time>2022-12-01T15:41:19Z</time>
      </trkpt>
      <trkpt lat="47.01573" lon="-1.1727">
        <ele>74</ele>
        <time>2022-12-01T15:41:22Z</time>
      </trkpt>
      <trkpt lat="47.01582" lon="-1.17509">
        <ele>72</ele>
        <time>2022-12-01T15:41:51Z</time>
      </trkpt>
      <trkpt lat="47.01579" lon="-1.17547">
        <ele>71</ele>
        <time>2022-12-01T15:41:55Z</time>
      </trkpt>
      <trkpt lat="47.01575" lon="-1.17566">
        <ele>71</ele>
        <time>2022-12-01T15:41:58Z</time>
      </trkpt>
      <trkpt lat="47.01512" lon="-1.17727">
        <ele>68</ele>
        <time>2022-12-01T15:42:20Z</time>
      </trkpt>
      <trkpt lat="47.01492" lon="-1.17765">
        <ele>67</ele>
        <time>2022-12-01T15:42:26Z</time>
      </trkpt>
      <trkpt lat="47.0146" lon="-1.17801">
        <ele>66</ele>
        <time>2022-12-01T15:42:33Z</time>
      </trkpt>
      <trkpt lat="47.01431" lon="-1.17845">
        <ele>63</ele>
        <time>2022-12-01T15:42:41Z</time>
      </trkpt>
      <trkpt lat="47.01417" lon="-1.17874">
        <ele>62</ele>
        <time>2022-12-01T15:42:45Z</time>
      </trkpt>
      <trkpt lat="47.01364" lon="-1.18003">
        <ele>59</ele>
        <time>2022-12-01T15:43:03Z</time>
      </trkpt>
      <trkpt lat="47.01333" lon="-1.18082">
        <ele>60</ele>
        <time>2022-12-01T15:43:14Z</time>
      </trkpt>
      <trkpt lat="47.01305" lon="-1.18142">
        <ele>62</ele>
        <time>2022-12-01T15:43:23Z</time>
      </trkpt>
      <trkpt lat="47.01228" lon="-1.18279">
        <ele>64</ele>
        <time>2022-12-01T15:43:45Z</time>
      </trkpt>
      <trkpt lat="47.01199" lon="-1.18332">
        <ele>64</ele>
        <time>2022-12-01T15:43:53Z</time>
      </trkpt>
      <trkpt lat="47.01172" lon="-1.18368">
        <ele>65</ele>
        <time>2022-12-01T15:44:00Z</time>
      </trkpt>
      <trkpt lat="47.01165" lon="-1.18375">
        <ele>65</ele>
        <time>2022-12-01T15:44:01Z</time>
      </trkpt>
      <trkpt lat="47.01167" lon="-1.1839">
        <ele>65</ele>
        <time>2022-12-01T15:44:03Z</time>
      </trkpt>
      <trkpt lat="47.01173" lon="-1.18404">
        <ele>65</ele>
        <time>2022-12-01T15:44:05Z</time>
      </trkpt>
      <trkpt lat="47.01185" lon="-1.18423">
        <ele>65</ele>
        <time>2022-12-01T15:44:08Z</time>
      </trkpt>
      <trkpt lat="47.01245" lon="-1.18501">
        <ele>64</ele>
        <time>2022-12-01T15:44:22Z</time>
      </trkpt>
      <trkpt lat="47.0124" lon="-1.1851">
        <ele>64</ele>
        <time>2022-12-01T15:44:24Z</time>
      </trkpt>
      <trkpt lat="47.013" lon="-1.18587">
        <ele>63</ele>
        <time>2022-12-01T15:44:38Z</time>
      </trkpt>
      <trkpt lat="47.01314" lon="-1.18709">
        <ele>63</ele>
        <time>2022-12-01T15:44:53Z</time>
      </trkpt>
      <trkpt lat="47.01321" lon="-1.18799">
        <ele>62</ele>
        <time>2022-12-01T15:45:04Z</time>
      </trkpt>
      <trkpt lat="47.0133" lon="-1.18847">
        <ele>61</ele>
        <time>2022-12-01T15:45:10Z</time>
      </trkpt>
      <trkpt lat="47.01334" lon="-1.18899">
        <ele>60</ele>
        <time>2022-12-01T15:45:16Z</time>
      </trkpt>
      <trkpt lat="47.01349" lon="-1.19004">
        <ele>58</ele>
        <time>2022-12-01T15:45:29Z</time>
      </trkpt>
      <trkpt lat="47.01352" lon="-1.19055">
        <ele>57</ele>
        <time>2022-12-01T15:45:36Z</time>
      </trkpt>
      <trkpt lat="47.01349" lon="-1.19105">
        <ele>56</ele>
        <time>2022-12-01T15:45:42Z</time>
      </trkpt>
      <trkpt lat="47.01352" lon="-1.19129">
        <ele>56</ele>
        <time>2022-12-01T15:45:45Z</time>
      </trkpt>
      <trkpt lat="47.01348" lon="-1.19189">
        <ele>55</ele>
        <time>2022-12-01T15:45:52Z</time>
      </trkpt>
      <trkpt lat="47.0134" lon="-1.19215">
        <ele>56</ele>
        <time>2022-12-01T15:45:55Z</time>
      </trkpt>
      <trkpt lat="47.01332" lon="-1.19221">
        <ele>56</ele>
        <time>2022-12-01T15:45:57Z</time>
      </trkpt>
      <trkpt lat="47.01325" lon="-1.19229">
        <ele>56</ele>
        <time>2022-12-01T15:45:59Z</time>
      </trkpt>
      <trkpt lat="47.01331" lon="-1.19238">
        <ele>56</ele>
        <time>2022-12-01T15:46:00Z</time>
      </trkpt>
      <trkpt lat="47.01301" lon="-1.19322">
        <ele>57</ele>
        <time>2022-12-01T15:46:12Z</time>
      </trkpt>
      <trkpt lat="47.01275" lon="-1.19394">
        <ele>58</ele>
        <time>2022-12-01T15:46:21Z</time>
      </trkpt>
      <trkpt lat="47.01256" lon="-1.19435">
        <ele>59</ele>
        <time>2022-12-01T15:46:27Z</time>
      </trkpt>
      <trkpt lat="47.01235" lon="-1.19485">
        <ele>58</ele>
        <time>2022-12-01T15:46:35Z</time>
      </trkpt>
      <trkpt lat="47.01218" lon="-1.19517">
        <ele>58</ele>
        <time>2022-12-01T15:46:39Z</time>
      </trkpt>
      <trkpt lat="47.01196" lon="-1.19565">
        <ele>58</ele>
        <time>2022-12-01T15:46:47Z</time>
      </trkpt>
      <trkpt lat="47.01189" lon="-1.19563">
        <ele>58</ele>
        <time>2022-12-01T15:46:48Z</time>
      </trkpt>
      <trkpt lat="47.01183" lon="-1.19556">
        <ele>58</ele>
        <time>2022-12-01T15:46:49Z</time>
      </trkpt>
      <trkpt lat="47.01178" lon="-1.19563">
        <ele>58</ele>
        <time>2022-12-01T15:46:50Z</time>
      </trkpt>
      <trkpt lat="47.0118" lon="-1.19573">
        <ele>58</ele>
        <time>2022-12-01T15:46:52Z</time>
      </trkpt>
      <trkpt lat="47.01175" lon="-1.19581">
        <ele>58</ele>
        <time>2022-12-01T15:46:53Z</time>
      </trkpt>
      <trkpt lat="47.01183" lon="-1.19602">
        <ele>58</ele>
        <time>2022-12-01T15:46:56Z</time>
      </trkpt>
      <trkpt lat="47.01188" lon="-1.19614">
        <ele>59</ele>
        <time>2022-12-01T15:46:58Z</time>
      </trkpt>
      <trkpt lat="47.01199" lon="-1.19636">
        <ele>59</ele>
        <time>2022-12-01T15:47:01Z</time>
      </trkpt>
      <trkpt lat="47.01213" lon="-1.19656">
        <ele>60</ele>
        <time>2022-12-01T15:47:04Z</time>
      </trkpt>
      <trkpt lat="47.01204" lon="-1.19667">
        <ele>60</ele>
        <time>2022-12-01T15:47:06Z</time>
      </trkpt>
      <trkpt lat="47.01197" lon="-1.19672">
        <ele>60</ele>
        <time>2022-12-01T15:47:08Z</time>
      </trkpt>
      <trkpt lat="47.01185" lon="-1.19676">
        <ele>59</ele>
        <time>2022-12-01T15:47:10Z</time>
      </trkpt>
      <trkpt lat="47.01139" lon="-1.19671">
        <ele>57</ele>
        <time>2022-12-01T15:47:18Z</time>
      </trkpt>
      <trkpt lat="47.01122" lon="-1.19671">
        <ele>57</ele>
        <time>2022-12-01T15:47:21Z</time>
      </trkpt>
      <trkpt lat="47.01101" lon="-1.19682">
        <ele>57</ele>
        <time>2022-12-01T15:47:25Z</time>
      </trkpt>
      <trkpt lat="47.01067" lon="-1.19707">
        <ele>57</ele>
        <time>2022-12-01T15:47:32Z</time>
      </trkpt>
      <trkpt lat="47.0105" lon="-1.19717">
        <ele>57</ele>
        <time>2022-12-01T15:47:35Z</time>
      </trkpt>
      <trkpt lat="47.00946" lon="-1.19789">
        <ele>60</ele>
        <time>2022-12-01T15:47:56Z</time>
      </trkpt>
      <trkpt lat="47.00821" lon="-1.19876">
        <ele>61</ele>
        <time>2022-12-01T15:48:20Z</time>
      </trkpt>
      <trkpt lat="47.00791" lon="-1.19898">
        <ele>61</ele>
        <time>2022-12-01T15:48:26Z</time>
      </trkpt>
      <trkpt lat="47.00549" lon="-1.20118">
        <ele>62</ele>
        <time>2022-12-01T15:49:17Z</time>
      </trkpt>
      <trkpt lat="47.00524" lon="-1.20134">
        <ele>63</ele>
        <time>2022-12-01T15:49:22Z</time>
      </trkpt>
      <trkpt lat="47.00498" lon="-1.20138">
        <ele>63</ele>
        <time>2022-12-01T15:49:26Z</time>
      </trkpt>
      <trkpt lat="47.0045" lon="-1.20139">
        <ele>64</ele>
        <time>2022-12-01T15:49:35Z</time>
      </trkpt>
      <trkpt lat="47.00398" lon="-1.20128">
        <ele>64</ele>
        <time>2022-12-01T15:49:44Z</time>
      </trkpt>
      <trkpt lat="47.00276" lon="-1.20065">
        <ele>64</ele>
        <time>2022-12-01T15:50:07Z</time>
      </trkpt>
      <trkpt lat="47.00259" lon="-1.20059">
        <ele>64</ele>
        <time>2022-12-01T15:50:10Z</time>
      </trkpt>
      <trkpt lat="47.00248" lon="-1.20057">
        <ele>64</ele>
        <time>2022-12-01T15:50:12Z</time>
      </trkpt>
      <trkpt lat="47.00217" lon="-1.20062">
        <ele>65</ele>
        <time>2022-12-01T15:50:18Z</time>
      </trkpt>
      <trkpt lat="47.00183" lon="-1.20074">
        <ele>65</ele>
        <time>2022-12-01T15:50:24Z</time>
      </trkpt>
      <trkpt lat="47.00142" lon="-1.20079">
        <ele>66</ele>
        <time>2022-12-01T15:50:32Z</time>
      </trkpt>
      <trkpt lat="46.99892" lon="-1.20085">
        <ele>66</ele>
        <time>2022-12-01T15:51:16Z</time>
      </trkpt>
      <trkpt lat="46.99883" lon="-1.20085">
        <ele>66</ele>
        <time>2022-12-01T15:51:18Z</time>
      </trkpt>
      <trkpt lat="46.99875" lon="-1.20081">
        <ele>66</ele>
        <time>2022-12-01T15:51:19Z</time>
      </trkpt>
      <trkpt lat="46.99852" lon="-1.20099">
        <ele>66</ele>
        <time>2022-12-01T15:51:24Z</time>
      </trkpt>
      <trkpt lat="46.99811" lon="-1.20138">
        <ele>66</ele>
        <time>2022-12-01T15:51:32Z</time>
      </trkpt>
      <trkpt lat="46.99791" lon="-1.20152">
        <ele>66</ele>
        <time>2022-12-01T15:51:36Z</time>
      </trkpt>
      <trkpt lat="46.99782" lon="-1.20156">
        <ele>66</ele>
        <time>2022-12-01T15:51:38Z</time>
      </trkpt>
      <trkpt lat="46.99757" lon="-1.20157">
        <ele>66</ele>
        <time>2022-12-01T15:51:43Z</time>
      </trkpt>
      <trkpt lat="46.99709" lon="-1.20153">
        <ele>65</ele>
        <time>2022-12-01T15:51:51Z</time>
      </trkpt>
      <trkpt lat="46.99699" lon="-1.20149">
        <ele>65</ele>
        <time>2022-12-01T15:51:53Z</time>
      </trkpt>
      <trkpt lat="46.99686" lon="-1.20137">
        <ele>65</ele>
        <time>2022-12-01T15:51:56Z</time>
      </trkpt>
      <trkpt lat="46.99674" lon="-1.20119">
        <ele>64</ele>
        <time>2022-12-01T15:51:59Z</time>
      </trkpt>
      <trkpt lat="46.99661" lon="-1.20092">
        <ele>64</ele>
        <time>2022-12-01T15:52:03Z</time>
      </trkpt>
      <trkpt lat="46.99636" lon="-1.20038">
        <ele>64</ele>
        <time>2022-12-01T15:52:11Z</time>
      </trkpt>
      <trkpt lat="46.99624" lon="-1.20018">
        <ele>63</ele>
        <time>2022-12-01T15:52:14Z</time>
      </trkpt>
      <trkpt lat="46.99609" lon="-1.20003">
        <ele>63</ele>
        <time>2022-12-01T15:52:17Z</time>
      </trkpt>
      <trkpt lat="46.99601" lon="-1.19997">
        <ele>63</ele>
        <time>2022-12-01T15:52:19Z</time>
      </trkpt>
      <trkpt lat="46.99586" lon="-1.19992">
        <ele>63</ele>
        <time>2022-12-01T15:52:21Z</time>
      </trkpt>
      <trkpt lat="46.99556" lon="-1.19989">
        <ele>64</ele>
        <time>2022-12-01T15:52:27Z</time>
      </trkpt>
      <trkpt lat="46.99535" lon="-1.19991">
        <ele>64</ele>
        <time>2022-12-01T15:52:31Z</time>
      </trkpt>
      <trkpt lat="46.99463" lon="-1.20013">
        <ele>67</ele>
        <time>2022-12-01T15:52:44Z</time>
      </trkpt>
      <trkpt lat="46.99439" lon="-1.20013">
        <ele>69</ele>
        <time>2022-12-01T15:52:48Z</time>
      </trkpt>
      <trkpt lat="46.99397" lon="-1.20001">
        <ele>70</ele>
        <time>2022-12-01T15:52:56Z</time>
      </trkpt>
      <trkpt lat="46.99307" lon="-1.19972">
        <ele>72</ele>
        <time>2022-12-01T15:53:12Z</time>
      </trkpt>
      <trkpt lat="46.99276" lon="-1.19964">
        <ele>72</ele>
        <time>2022-12-01T15:53:18Z</time>
      </trkpt>
      <trkpt lat="46.99267" lon="-1.19961">
        <ele>73</ele>
        <time>2022-12-01T15:53:19Z</time>
      </trkpt>
      <trkpt lat="46.99214" lon="-1.19935">
        <ele>74</ele>
        <time>2022-12-01T15:53:29Z</time>
      </trkpt>
      <trkpt lat="46.992" lon="-1.19926">
        <ele>74</ele>
        <time>2022-12-01T15:53:32Z</time>
      </trkpt>
      <trkpt lat="46.99167" lon="-1.19891">
        <ele>73</ele>
        <time>2022-12-01T15:53:39Z</time>
      </trkpt>
      <trkpt lat="46.99118" lon="-1.19831">
        <ele>74</ele>
        <time>2022-12-01T15:53:50Z</time>
      </trkpt>
      <trkpt lat="46.99097" lon="-1.19813">
        <ele>74</ele>
        <time>2022-12-01T15:53:55Z</time>
      </trkpt>
      <trkpt lat="46.99048" lon="-1.19783">
        <ele>75</ele>
        <time>2022-12-01T15:54:04Z</time>
      </trkpt>
      <trkpt lat="46.99035" lon="-1.1978">
        <ele>75</ele>
        <time>2022-12-01T15:54:07Z</time>
      </trkpt>
      <trkpt lat="46.99024" lon="-1.19786">
        <ele>75</ele>
        <time>2022-12-01T15:54:09Z</time>
      </trkpt>
      <trkpt lat="46.99019" lon="-1.19794">
        <ele>76</ele>
        <time>2022-12-01T15:54:10Z</time>
      </trkpt>
      <trkpt lat="46.99015" lon="-1.19805">
        <ele>76</ele>
        <time>2022-12-01T15:54:11Z</time>
      </trkpt>
      <trkpt lat="46.99002" lon="-1.19883">
        <ele>78</ele>
        <time>2022-12-01T15:54:21Z</time>
      </trkpt>
      <trkpt lat="46.98999" lon="-1.19895">
        <ele>78</ele>
        <time>2022-12-01T15:54:23Z</time>
      </trkpt>
      <trkpt lat="46.98897" lon="-1.19831">
        <ele>79</ele>
        <time>2022-12-01T15:54:42Z</time>
      </trkpt>
      <trkpt lat="46.98885" lon="-1.19828">
        <ele>79</ele>
        <time>2022-12-01T15:54:45Z</time>
      </trkpt>
      <trkpt lat="46.9888" lon="-1.19829">
        <ele>79</ele>
        <time>2022-12-01T15:54:46Z</time>
      </trkpt>
      <trkpt lat="46.9887" lon="-1.1984">
        <ele>80</ele>
        <time>2022-12-01T15:54:48Z</time>
      </trkpt>
      <trkpt lat="46.98727" lon="-1.20076">
        <ele>79</ele>
        <time>2022-12-01T15:55:26Z</time>
      </trkpt>
      <trkpt lat="46.98716" lon="-1.20079">
        <ele>79</ele>
        <time>2022-12-01T15:55:28Z</time>
      </trkpt>
      <trkpt lat="46.98702" lon="-1.20072">
        <ele>79</ele>
        <time>2022-12-01T15:55:31Z</time>
      </trkpt>
      <trkpt lat="46.98677" lon="-1.20044">
        <ele>79</ele>
        <time>2022-12-01T15:55:36Z</time>
      </trkpt>
      <trkpt lat="46.9866" lon="-1.2002">
        <ele>79</ele>
        <time>2022-12-01T15:55:41Z</time>
      </trkpt>
      <trkpt lat="46.98648" lon="-1.20013">
        <ele>79</ele>
        <time>2022-12-01T15:55:43Z</time>
      </trkpt>
      <trkpt lat="46.98632" lon="-1.20009">
        <ele>78</ele>
        <time>2022-12-01T15:55:46Z</time>
      </trkpt>
      <trkpt lat="46.9861" lon="-1.19996">
        <ele>78</ele>
        <time>2022-12-01T15:55:50Z</time>
      </trkpt>
      <trkpt lat="46.986" lon="-1.19993">
        <ele>78</ele>
        <time>2022-12-01T15:55:52Z</time>
      </trkpt>
      <trkpt lat="46.98584" lon="-1.19998">
        <ele>78</ele>
        <time>2022-12-01T15:55:55Z</time>
      </trkpt>
      <trkpt lat="46.98575" lon="-1.20003">
        <ele>78</ele>
        <time>2022-12-01T15:55:56Z</time>
      </trkpt>
      <trkpt lat="46.98556" lon="-1.20019">
        <ele>78</ele>
        <time>2022-12-01T15:56:00Z</time>
      </trkpt>
      <trkpt lat="46.9854" lon="-1.20046">
        <ele>77</ele>
        <time>2022-12-01T15:56:05Z</time>
      </trkpt>
      <trkpt lat="46.98511" lon="-1.20112">
        <ele>75</ele>
        <time>2022-12-01T15:56:14Z</time>
      </trkpt>
      <trkpt lat="46.98476" lon="-1.20191">
        <ele>74</ele>
        <time>2022-12-01T15:56:26Z</time>
      </trkpt>
      <trkpt lat="46.9846" lon="-1.20223">
        <ele>73</ele>
        <time>2022-12-01T15:56:30Z</time>
      </trkpt>
      <trkpt lat="46.98449" lon="-1.20239">
        <ele>73</ele>
        <time>2022-12-01T15:56:33Z</time>
      </trkpt>
      <trkpt lat="46.98425" lon="-1.2027">
        <ele>73</ele>
        <time>2022-12-01T15:56:39Z</time>
      </trkpt>
      <trkpt lat="46.98394" lon="-1.203">
        <ele>73</ele>
        <time>2022-12-01T15:56:45Z</time>
      </trkpt>
      <trkpt lat="46.98361" lon="-1.20321">
        <ele>74</ele>
        <time>2022-12-01T15:56:52Z</time>
      </trkpt>
      <trkpt lat="46.98327" lon="-1.20333">
        <ele>75</ele>
        <time>2022-12-01T15:56:58Z</time>
      </trkpt>
      <trkpt lat="46.97817" lon="-1.20477">
        <ele>76</ele>
        <time>2022-12-01T15:58:30Z</time>
      </trkpt>
      <trkpt lat="46.97681" lon="-1.20513">
        <ele>77</ele>
        <time>2022-12-01T15:58:55Z</time>
      </trkpt>
      <trkpt lat="46.97553" lon="-1.20568">
        <ele>76</ele>
        <time>2022-12-01T15:59:19Z</time>
      </trkpt>
      <trkpt lat="46.97401" lon="-1.20657">
        <ele>75</ele>
        <time>2022-12-01T15:59:48Z</time>
      </trkpt>
      <trkpt lat="46.97369" lon="-1.20673">
        <ele>74</ele>
        <time>2022-12-01T15:59:54Z</time>
      </trkpt>
      <trkpt lat="46.97355" lon="-1.20677">
        <ele>73</ele>
        <time>2022-12-01T15:59:56Z</time>
      </trkpt>
      <trkpt lat="46.97341" lon="-1.20677">
        <ele>73</ele>
        <time>2022-12-01T15:59:59Z</time>
      </trkpt>
      <trkpt lat="46.97256" lon="-1.20665">
        <ele>70</ele>
        <time>2022-12-01T16:00:14Z</time>
      </trkpt>
      <trkpt lat="46.97197" lon="-1.20651">
        <ele>70</ele>
        <time>2022-12-01T16:00:25Z</time>
      </trkpt>
      <trkpt lat="46.97184" lon="-1.20645">
        <ele>70</ele>
        <time>2022-12-01T16:00:27Z</time>
      </trkpt>
      <trkpt lat="46.97159" lon="-1.20628">
        <ele>70</ele>
        <time>2022-12-01T16:00:32Z</time>
      </trkpt>
      <trkpt lat="46.96454" lon="-1.20137">
        <ele>78</ele>
        <time>2022-12-01T16:02:51Z</time>
      </trkpt>
      <trkpt lat="46.96422" lon="-1.2011">
        <ele>78</ele>
        <time>2022-12-01T16:02:58Z</time>
      </trkpt>
      <trkpt lat="46.96296" lon="-1.19967">
        <ele>78</ele>
        <time>2022-12-01T16:03:26Z</time>
      </trkpt>
      <trkpt lat="46.96276" lon="-1.19938">
        <ele>78</ele>
        <time>2022-12-01T16:03:31Z</time>
      </trkpt>
      <trkpt lat="46.95846" lon="-1.19287">
        <ele>85</ele>
        <time>2022-12-01T16:05:21Z</time>
      </trkpt>
      <trkpt lat="46.95818" lon="-1.19253">
        <ele>85</ele>
        <time>2022-12-01T16:05:27Z</time>
      </trkpt>
      <trkpt lat="46.95761" lon="-1.19209">
        <ele>85</ele>
        <time>2022-12-01T16:05:39Z</time>
      </trkpt>
      <trkpt lat="46.95714" lon="-1.19183">
        <ele>84</ele>
        <time>2022-12-01T16:05:48Z</time>
      </trkpt>
      <trkpt lat="46.95669" lon="-1.19166">
        <ele>83</ele>
        <time>2022-12-01T16:05:56Z</time>
      </trkpt>
      <trkpt lat="46.95639" lon="-1.19162">
        <ele>83</ele>
        <time>2022-12-01T16:06:01Z</time>
      </trkpt>
      <trkpt lat="46.95516" lon="-1.19185">
        <ele>83</ele>
        <time>2022-12-01T16:06:24Z</time>
      </trkpt>
      <trkpt lat="46.95447" lon="-1.19193">
        <ele>84</ele>
        <time>2022-12-01T16:06:36Z</time>
      </trkpt>
      <trkpt lat="46.95323" lon="-1.19186">
        <ele>83</ele>
        <time>2022-12-01T16:06:58Z</time>
      </trkpt>
      <trkpt lat="46.95292" lon="-1.19176">
        <ele>83</ele>
        <time>2022-12-01T16:07:04Z</time>
      </trkpt>
      <trkpt lat="46.95268" lon="-1.19182">
        <ele>84</ele>
        <time>2022-12-01T16:07:08Z</time>
      </trkpt>
      <trkpt lat="46.95207" lon="-1.1921">
        <ele>82</ele>
        <time>2022-12-01T16:07:19Z</time>
      </trkpt>
      <trkpt lat="46.95177" lon="-1.19224">
        <ele>81</ele>
        <time>2022-12-01T16:07:25Z</time>
      </trkpt>
      <trkpt lat="46.95166" lon="-1.19226">
        <ele>81</ele>
        <time>2022-12-01T16:07:27Z</time>
      </trkpt>
      <trkpt lat="46.95153" lon="-1.19226">
        <ele>81</ele>
        <time>2022-12-01T16:07:29Z</time>
      </trkpt>
      <trkpt lat="46.95128" lon="-1.19221">
        <ele>80</ele>
        <time>2022-12-01T16:07:34Z</time>
      </trkpt>
      <trkpt lat="46.95121" lon="-1.19219">
        <ele>80</ele>
        <time>2022-12-01T16:07:35Z</time>
      </trkpt>
      <trkpt lat="46.95108" lon="-1.19211">
        <ele>80</ele>
        <time>2022-12-01T16:07:37Z</time>
      </trkpt>
      <trkpt lat="46.95079" lon="-1.19181">
        <ele>79</ele>
        <time>2022-12-01T16:07:44Z</time>
      </trkpt>
      <trkpt lat="46.95016" lon="-1.19102">
        <ele>80</ele>
        <time>2022-12-01T16:07:58Z</time>
      </trkpt>
      <trkpt lat="46.95002" lon="-1.19083">
        <ele>80</ele>
        <time>2022-12-01T16:08:02Z</time>
      </trkpt>
      <trkpt lat="46.95" lon="-1.19074">
        <ele>80</ele>
        <time>2022-12-01T16:08:03Z</time>
      </trkpt>
      <trkpt lat="46.94999" lon="-1.19056">
        <ele>80</ele>
        <time>2022-12-01T16:08:05Z</time>
      </trkpt>
      <trkpt lat="46.94996" lon="-1.19053">
        <ele>80</ele>
        <time>2022-12-01T16:08:06Z</time>
      </trkpt>
      <trkpt lat="46.94988" lon="-1.19053">
        <ele>80</ele>
        <time>2022-12-01T16:08:07Z</time>
      </trkpt>
      <trkpt lat="46.94945" lon="-1.19058">
        <ele>80</ele>
        <time>2022-12-01T16:08:15Z</time>
      </trkpt>
      <trkpt lat="46.94921" lon="-1.1907">
        <ele>81</ele>
        <time>2022-12-01T16:08:19Z</time>
      </trkpt>
      <trkpt lat="46.94905" lon="-1.19072">
        <ele>80</ele>
        <time>2022-12-01T16:08:22Z</time>
      </trkpt>
      <trkpt lat="46.94884" lon="-1.1907">
        <ele>78</ele>
        <time>2022-12-01T16:08:26Z</time>
      </trkpt>
      <trkpt lat="46.94877" lon="-1.19066">
        <ele>78</ele>
        <time>2022-12-01T16:08:27Z</time>
      </trkpt>
      <trkpt lat="46.9486" lon="-1.19103">
        <ele>77</ele>
        <time>2022-12-01T16:08:33Z</time>
      </trkpt>
      <trkpt lat="46.94836" lon="-1.19101">
        <ele>75</ele>
        <time>2022-12-01T16:08:37Z</time>
      </trkpt>
      <trkpt lat="46.94827" lon="-1.19104">
        <ele>74</ele>
        <time>2022-12-01T16:08:39Z</time>
      </trkpt>
      <trkpt lat="46.94814" lon="-1.19129">
        <ele>73</ele>
        <time>2022-12-01T16:08:43Z</time>
      </trkpt>
      <trkpt lat="46.94788" lon="-1.19157">
        <ele>71</ele>
        <time>2022-12-01T16:08:48Z</time>
      </trkpt>
      <trkpt lat="46.94755" lon="-1.19108">
        <ele>69</ele>
        <time>2022-12-01T16:08:57Z</time>
      </trkpt>
      <trkpt lat="46.9436" lon="-1.18565">
        <ele>87</ele>
        <time>2022-12-01T16:10:33Z</time>
      </trkpt>
      <trkpt lat="46.94322" lon="-1.18517">
        <ele>88</ele>
        <time>2022-12-01T16:10:42Z</time>
      </trkpt>
      <trkpt lat="46.94302" lon="-1.18503">
        <ele>88</ele>
        <time>2022-12-01T16:10:46Z</time>
      </trkpt>
      <trkpt lat="46.94297" lon="-1.18509">
        <ele>88</ele>
        <time>2022-12-01T16:10:47Z</time>
      </trkpt>
      <trkpt lat="46.94293" lon="-1.1851">
        <ele>88</ele>
        <time>2022-12-01T16:10:48Z</time>
      </trkpt>
      <trkpt lat="46.94289" lon="-1.18509">
        <ele>88</ele>
        <time>2022-12-01T16:10:49Z</time>
      </trkpt>
      <trkpt lat="46.94284" lon="-1.18502">
        <ele>88</ele>
        <time>2022-12-01T16:10:50Z</time>
      </trkpt>
      <trkpt lat="46.94282" lon="-1.18493">
        <ele>88</ele>
        <time>2022-12-01T16:10:51Z</time>
      </trkpt>
      <trkpt lat="46.94283" lon="-1.18488">
        <ele>88</ele>
        <time>2022-12-01T16:10:52Z</time>
      </trkpt>
      <trkpt lat="46.94287" lon="-1.18481">
        <ele>88</ele>
        <time>2022-12-01T16:10:53Z</time>
      </trkpt>
      <trkpt lat="46.9426" lon="-1.18433">
        <ele>89</ele>
        <time>2022-12-01T16:11:00Z</time>
      </trkpt>
      <trkpt lat="46.93873" lon="-1.17905">
        <ele>89</ele>
        <time>2022-12-01T16:12:34Z</time>
      </trkpt>
      <trkpt lat="46.93645" lon="-1.176">
        <ele>91</ele>
        <time>2022-12-01T16:13:29Z</time>
      </trkpt>
      <trkpt lat="46.93611" lon="-1.17559">
        <ele>90</ele>
        <time>2022-12-01T16:13:37Z</time>
      </trkpt>
      <trkpt lat="46.9357" lon="-1.17523">
        <ele>89</ele>
        <time>2022-12-01T16:13:46Z</time>
      </trkpt>
      <trkpt lat="46.93497" lon="-1.17471">
        <ele>88</ele>
        <time>2022-12-01T16:14:00Z</time>
      </trkpt>
      <trkpt lat="46.93326" lon="-1.17333">
        <ele>87</ele>
        <time>2022-12-01T16:14:35Z</time>
      </trkpt>
      <trkpt lat="46.92964" lon="-1.17053">
        <ele>83</ele>
        <time>2022-12-01T16:15:48Z</time>
      </trkpt>
      <trkpt lat="46.9253" lon="-1.16709">
        <ele>78</ele>
        <time>2022-12-01T16:17:15Z</time>
      </trkpt>
      <trkpt lat="46.92032" lon="-1.16323">
        <ele>77</ele>
        <time>2022-12-01T16:18:56Z</time>
      </trkpt>
      <trkpt lat="46.92" lon="-1.16296">
        <ele>78</ele>
        <time>2022-12-01T16:19:02Z</time>
      </trkpt>
      <trkpt lat="46.91953" lon="-1.16247">
        <ele>78</ele>
        <time>2022-12-01T16:19:13Z</time>
      </trkpt>
      <trkpt lat="46.91902" lon="-1.16178">
        <ele>78</ele>
        <time>2022-12-01T16:19:25Z</time>
      </trkpt>
      <trkpt lat="46.91861" lon="-1.16099">
        <ele>81</ele>
        <time>2022-12-01T16:19:37Z</time>
      </trkpt>
      <trkpt lat="46.9181" lon="-1.15965">
        <ele>82</ele>
        <time>2022-12-01T16:19:56Z</time>
      </trkpt>
      <trkpt lat="46.91787" lon="-1.15898">
        <ele>82</ele>
        <time>2022-12-01T16:20:05Z</time>
      </trkpt>
      <trkpt lat="46.9156" lon="-1.15262">
        <ele>86</ele>
        <time>2022-12-01T16:21:32Z</time>
      </trkpt>
      <trkpt lat="46.91539" lon="-1.15214">
        <ele>85</ele>
        <time>2022-12-01T16:21:39Z</time>
      </trkpt>
      <trkpt lat="46.91337" lon="-1.14855">
        <ele>89</ele>
        <time>2022-12-01T16:22:35Z</time>
      </trkpt>
      <trkpt lat="46.91311" lon="-1.148">
        <ele>90</ele>
        <time>2022-12-01T16:22:44Z</time>
      </trkpt>
      <trkpt lat="46.91216" lon="-1.14594">
        <ele>90</ele>
        <time>2022-12-01T16:23:14Z</time>
      </trkpt>
      <trkpt lat="46.91145" lon="-1.14436">
        <ele>90</ele>
        <time>2022-12-01T16:23:37Z</time>
      </trkpt>
      <trkpt lat="46.91118" lon="-1.14382">
        <ele>90</ele>
        <time>2022-12-01T16:23:45Z</time>
      </trkpt>
      <trkpt lat="46.91104" lon="-1.14374">
        <ele>90</ele>
        <time>2022-12-01T16:23:48Z</time>
      </trkpt>
      <trkpt lat="46.91097" lon="-1.14373">
        <ele>90</ele>
        <time>2022-12-01T16:23:49Z</time>
      </trkpt>
      <trkpt lat="46.91088" lon="-1.14372">
        <ele>90</ele>
        <time>2022-12-01T16:23:50Z</time>
      </trkpt>
      <trkpt lat="46.91078" lon="-1.14376">
        <ele>91</ele>
        <time>2022-12-01T16:23:52Z</time>
      </trkpt>
      <trkpt lat="46.91075" lon="-1.14384">
        <ele>91</ele>
        <time>2022-12-01T16:23:53Z</time>
      </trkpt>
      <trkpt lat="46.91067" lon="-1.1439">
        <ele>91</ele>
        <time>2022-12-01T16:23:55Z</time>
      </trkpt>
      <trkpt lat="46.91062" lon="-1.1439">
        <ele>91</ele>
        <time>2022-12-01T16:23:56Z</time>
      </trkpt>
      <trkpt lat="46.91057" lon="-1.14386">
        <ele>91</ele>
        <time>2022-12-01T16:23:57Z</time>
      </trkpt>
      <trkpt lat="46.91054" lon="-1.1438">
        <ele>91</ele>
        <time>2022-12-01T16:23:58Z</time>
      </trkpt>
      <trkpt lat="46.91052" lon="-1.14373">
        <ele>91</ele>
        <time>2022-12-01T16:23:59Z</time>
      </trkpt>
      <trkpt lat="46.91052" lon="-1.14365">
        <ele>91</ele>
        <time>2022-12-01T16:24:00Z</time>
      </trkpt>
      <trkpt lat="46.91055" lon="-1.14358">
        <ele>91</ele>
        <time>2022-12-01T16:24:01Z</time>
      </trkpt>
      <trkpt lat="46.91059" lon="-1.14353">
        <ele>91</ele>
        <time>2022-12-01T16:24:02Z</time>
      </trkpt>
      <trkpt lat="46.91064" lon="-1.14351">
        <ele>90</ele>
        <time>2022-12-01T16:24:02Z</time>
      </trkpt>
      <trkpt lat="46.91049" lon="-1.14258">
        <ele>90</ele>
        <time>2022-12-01T16:24:14Z</time>
      </trkpt>
      <trkpt lat="46.91044" lon="-1.14232">
        <ele>90</ele>
        <time>2022-12-01T16:24:17Z</time>
      </trkpt>
      <trkpt lat="46.9103" lon="-1.14185">
        <ele>91</ele>
        <time>2022-12-01T16:24:24Z</time>
      </trkpt>
      <trkpt lat="46.91003" lon="-1.14106">
        <ele>90</ele>
        <time>2022-12-01T16:24:34Z</time>
      </trkpt>
      <trkpt lat="46.90794" lon="-1.13479">
        <ele>88</ele>
        <time>2022-12-01T16:25:59Z</time>
      </trkpt>
      <trkpt lat="46.90782" lon="-1.1346">
        <ele>88</ele>
        <time>2022-12-01T16:26:02Z</time>
      </trkpt>
      <trkpt lat="46.90778" lon="-1.13451">
        <ele>88</ele>
        <time>2022-12-01T16:26:04Z</time>
      </trkpt>
      <trkpt lat="46.90775" lon="-1.13435">
        <ele>88</ele>
        <time>2022-12-01T16:26:06Z</time>
      </trkpt>
      <trkpt lat="46.90775" lon="-1.13417">
        <ele>87</ele>
        <time>2022-12-01T16:26:08Z</time>
      </trkpt>
      <trkpt lat="46.90766" lon="-1.13364">
        <ele>87</ele>
        <time>2022-12-01T16:26:14Z</time>
      </trkpt>
      <trkpt lat="46.90762" lon="-1.13345">
        <ele>87</ele>
        <time>2022-12-01T16:26:17Z</time>
      </trkpt>
      <trkpt lat="46.90756" lon="-1.1333">
        <ele>87</ele>
        <time>2022-12-01T16:26:19Z</time>
      </trkpt>
      <trkpt lat="46.90728" lon="-1.13277">
        <ele>86</ele>
        <time>2022-12-01T16:26:27Z</time>
      </trkpt>
      <trkpt lat="46.90661" lon="-1.13157">
        <ele>81</ele>
        <time>2022-12-01T16:26:46Z</time>
      </trkpt>
      <trkpt lat="46.90631" lon="-1.13102">
        <ele>79</ele>
        <time>2022-12-01T16:26:55Z</time>
      </trkpt>
      <trkpt lat="46.90618" lon="-1.13064">
        <ele>78</ele>
        <time>2022-12-01T16:27:00Z</time>
      </trkpt>
      <trkpt lat="46.90614" lon="-1.13047">
        <ele>78</ele>
        <time>2022-12-01T16:27:02Z</time>
      </trkpt>
      <trkpt lat="46.90613" lon="-1.13026">
        <ele>79</ele>
        <time>2022-12-01T16:27:04Z</time>
      </trkpt>
      <trkpt lat="46.90614" lon="-1.13003">
        <ele>79</ele>
        <time>2022-12-01T16:27:07Z</time>
      </trkpt>
      <trkpt lat="46.90622" lon="-1.1294">
        <ele>80</ele>
        <time>2022-12-01T16:27:15Z</time>
      </trkpt>
      <trkpt lat="46.9064" lon="-1.12699">
        <ele>84</ele>
        <time>2022-12-01T16:27:44Z</time>
      </trkpt>
      <trkpt lat="46.90712" lon="-1.11651">
        <ele>81</ele>
        <time>2022-12-01T16:29:53Z</time>
      </trkpt>
      <trkpt lat="46.90753" lon="-1.11099">
        <ele>90</ele>
        <time>2022-12-01T16:31:00Z</time>
      </trkpt>
      <trkpt lat="46.90841" lon="-1.10317">
        <ele>97</ele>
        <time>2022-12-01T16:32:36Z</time>
      </trkpt>
      <trkpt lat="46.90871" lon="-1.10088">
        <ele>94</ele>
        <time>2022-12-01T16:33:05Z</time>
      </trkpt>
      <trkpt lat="46.90867" lon="-1.10086">
        <ele>94</ele>
        <time>2022-12-01T16:33:05Z</time>
      </trkpt>
      <trkpt lat="46.90861" lon="-1.10076">
        <ele>94</ele>
        <time>2022-12-01T16:33:07Z</time>
      </trkpt>
      <trkpt lat="46.90859" lon="-1.10064">
        <ele>93</ele>
        <time>2022-12-01T16:33:09Z</time>
      </trkpt>
      <trkpt lat="46.90738" lon="-1.10051">
        <ele>90</ele>
        <time>2022-12-01T16:33:30Z</time>
      </trkpt>
      <trkpt lat="46.90696" lon="-1.10041">
        <ele>89</ele>
        <time>2022-12-01T16:33:38Z</time>
      </trkpt>
      <trkpt lat="46.90653" lon="-1.10023">
        <ele>89</ele>
        <time>2022-12-01T16:33:46Z</time>
      </trkpt>
      <trkpt lat="46.90629" lon="-1.10009">
        <ele>88</ele>
        <time>2022-12-01T16:33:50Z</time>
      </trkpt>
      <trkpt lat="46.90609" lon="-1.09994">
        <ele>88</ele>
        <time>2022-12-01T16:33:54Z</time>
      </trkpt>
      <trkpt lat="46.90588" lon="-1.09978">
        <ele>87</ele>
        <time>2022-12-01T16:33:59Z</time>
      </trkpt>
      <trkpt lat="46.90549" lon="-1.09939">
        <ele>87</ele>
        <time>2022-12-01T16:34:07Z</time>
      </trkpt>
      <trkpt lat="46.9051" lon="-1.09885">
        <ele>86</ele>
        <time>2022-12-01T16:34:16Z</time>
      </trkpt>
      <trkpt lat="46.90479" lon="-1.09829">
        <ele>86</ele>
        <time>2022-12-01T16:34:25Z</time>
      </trkpt>
      <trkpt lat="46.90449" lon="-1.09756">
        <ele>84</ele>
        <time>2022-12-01T16:34:36Z</time>
      </trkpt>
      <trkpt lat="46.90438" lon="-1.0972">
        <ele>84</ele>
        <time>2022-12-01T16:34:40Z</time>
      </trkpt>
      <trkpt lat="46.90424" lon="-1.09646">
        <ele>84</ele>
        <time>2022-12-01T16:34:50Z</time>
      </trkpt>
      <trkpt lat="46.90419" lon="-1.09605">
        <ele>85</ele>
        <time>2022-12-01T16:34:55Z</time>
      </trkpt>
      <trkpt lat="46.90416" lon="-1.09566">
        <ele>85</ele>
        <time>2022-12-01T16:35:00Z</time>
      </trkpt>
      <trkpt lat="46.90411" lon="-1.094">
        <ele>87</ele>
        <time>2022-12-01T16:35:20Z</time>
      </trkpt>
      <trkpt lat="46.90408" lon="-1.09369">
        <ele>87</ele>
        <time>2022-12-01T16:35:24Z</time>
      </trkpt>
      <trkpt lat="46.90398" lon="-1.09364">
        <ele>87</ele>
        <time>2022-12-01T16:35:25Z</time>
      </trkpt>
      <trkpt lat="46.90393" lon="-1.09351">
        <ele>86</ele>
        <time>2022-12-01T16:35:27Z</time>
      </trkpt>
      <trkpt lat="46.90236" lon="-1.094">
        <ele>83</ele>
        <time>2022-12-01T16:35:56Z</time>
      </trkpt>
      <trkpt lat="46.90214" lon="-1.09404">
        <ele>83</ele>
        <time>2022-12-01T16:36:00Z</time>
      </trkpt>
      <trkpt lat="46.90186" lon="-1.09405">
        <ele>83</ele>
        <time>2022-12-01T16:36:05Z</time>
      </trkpt>
      <trkpt lat="46.89704" lon="-1.09316">
        <ele>86</ele>
        <time>2022-12-01T16:37:31Z</time>
      </trkpt>
      <trkpt lat="46.89689" lon="-1.09315">
        <ele>86</ele>
        <time>2022-12-01T16:37:34Z</time>
      </trkpt>
      <trkpt lat="46.8966" lon="-1.09317">
        <ele>86</ele>
        <time>2022-12-01T16:37:39Z</time>
      </trkpt>
      <trkpt lat="46.8963" lon="-1.09327">
        <ele>87</ele>
        <time>2022-12-01T16:37:44Z</time>
      </trkpt>
      <trkpt lat="46.89529" lon="-1.09382">
        <ele>90</ele>
        <time>2022-12-01T16:38:04Z</time>
      </trkpt>
      <trkpt lat="46.8933" lon="-1.095">
        <ele>89</ele>
        <time>2022-12-01T16:38:42Z</time>
      </trkpt>
      <trkpt lat="46.89305" lon="-1.09519">
        <ele>89</ele>
        <time>2022-12-01T16:38:47Z</time>
      </trkpt>
      <trkpt lat="46.89062" lon="-1.09809">
        <ele>91</ele>
        <time>2022-12-01T16:39:43Z</time>
      </trkpt>
      <trkpt lat="46.8881" lon="-1.10124">
        <ele>90</ele>
        <time>2022-12-01T16:40:42Z</time>
      </trkpt>
      <trkpt lat="46.88795" lon="-1.10148">
        <ele>91</ele>
        <time>2022-12-01T16:40:46Z</time>
      </trkpt>
      <trkpt lat="46.88777" lon="-1.10185">
        <ele>90</ele>
        <time>2022-12-01T16:40:51Z</time>
      </trkpt>
      <trkpt lat="46.88752" lon="-1.10256">
        <ele>89</ele>
        <time>2022-12-01T16:41:01Z</time>
      </trkpt>
      <trkpt lat="46.88742" lon="-1.10277">
        <ele>89</ele>
        <time>2022-12-01T16:41:04Z</time>
      </trkpt>
      <trkpt lat="46.88727" lon="-1.10299">
        <ele>89</ele>
        <time>2022-12-01T16:41:08Z</time>
      </trkpt>
      <trkpt lat="46.88709" lon="-1.10317">
        <ele>89</ele>
        <time>2022-12-01T16:41:12Z</time>
      </trkpt>
      <trkpt lat="46.88684" lon="-1.10331">
        <ele>89</ele>
        <time>2022-12-01T16:41:16Z</time>
      </trkpt>
      <trkpt lat="46.88668" lon="-1.10335">
        <ele>89</ele>
        <time>2022-12-01T16:41:19Z</time>
      </trkpt>
      <trkpt lat="46.88653" lon="-1.10335">
        <ele>89</ele>
        <time>2022-12-01T16:41:22Z</time>
      </trkpt>
      <trkpt lat="46.8863" lon="-1.1033">
        <ele>89</ele>
        <time>2022-12-01T16:41:26Z</time>
      </trkpt>
      <trkpt lat="46.88604" lon="-1.10314">
        <ele>89</ele>
        <time>2022-12-01T16:41:31Z</time>
      </trkpt>
      <trkpt lat="46.88579" lon="-1.10296">
        <ele>89</ele>
        <time>2022-12-01T16:41:36Z</time>
      </trkpt>
      <trkpt lat="46.88539" lon="-1.10263">
        <ele>88</ele>
        <time>2022-12-01T16:41:44Z</time>
      </trkpt>
      <trkpt lat="46.88508" lon="-1.10238">
        <ele>87</ele>
        <time>2022-12-01T16:41:50Z</time>
      </trkpt>
      <trkpt lat="46.88454" lon="-1.10206">
        <ele>86</ele>
        <time>2022-12-01T16:42:01Z</time>
      </trkpt>
      <trkpt lat="46.88421" lon="-1.10191">
        <ele>85</ele>
        <time>2022-12-01T16:42:07Z</time>
      </trkpt>
      <trkpt lat="46.88121" lon="-1.10094">
        <ele>74</ele>
        <time>2022-12-01T16:43:02Z</time>
      </trkpt>
      <trkpt lat="46.88105" lon="-1.10089">
        <ele>75</ele>
        <time>2022-12-01T16:43:05Z</time>
      </trkpt>
      <trkpt lat="46.88071" lon="-1.10078">
        <ele>76</ele>
        <time>2022-12-01T16:43:11Z</time>
      </trkpt>
      <trkpt lat="46.88039" lon="-1.10072">
        <ele>78</ele>
        <time>2022-12-01T16:43:17Z</time>
      </trkpt>
      <trkpt lat="46.87852" lon="-1.10062">
        <ele>86</ele>
        <time>2022-12-01T16:43:50Z</time>
      </trkpt>
      <trkpt lat="46.87717" lon="-1.10057">
        <ele>90</ele>
        <time>2022-12-01T16:44:14Z</time>
      </trkpt>
      <trkpt lat="46.87699" lon="-1.10054">
        <ele>91</ele>
        <time>2022-12-01T16:44:17Z</time>
      </trkpt>
      <trkpt lat="46.86208" lon="-1.09586">
        <ele>79</ele>
        <time>2022-12-01T16:48:48Z</time>
      </trkpt>
      <trkpt lat="46.86329" lon="-1.0934">
        <ele>82</ele>
        <time>2022-12-01T16:49:25Z</time>
      </trkpt>
      <trkpt lat="46.8636" lon="-1.09293">
        <ele>84</ele>
        <time>2022-12-01T16:49:33Z</time>
      </trkpt>
      <trkpt lat="46.86377" lon="-1.09275">
        <ele>85</ele>
        <time>2022-12-01T16:49:37Z</time>
      </trkpt>
      <trkpt lat="46.86443" lon="-1.09217">
        <ele>88</ele>
        <time>2022-12-01T16:49:51Z</time>
      </trkpt>
      <trkpt lat="46.86621" lon="-1.09065">
        <ele>95</ele>
        <time>2022-12-01T16:50:27Z</time>
      </trkpt>
      <trkpt lat="46.8718" lon="-1.08581">
        <ele>95</ele>
        <time>2022-12-01T16:52:23Z</time>
      </trkpt>
      <trkpt lat="46.87198" lon="-1.08561">
        <ele>95</ele>
        <time>2022-12-01T16:52:27Z</time>
      </trkpt>
      <trkpt lat="46.87213" lon="-1.0854">
        <ele>96</ele>
        <time>2022-12-01T16:52:31Z</time>
      </trkpt>
      <trkpt lat="46.8723" lon="-1.08508">
        <ele>96</ele>
        <time>2022-12-01T16:52:36Z</time>
      </trkpt>
      <trkpt lat="46.87239" lon="-1.08489">
        <ele>96</ele>
        <time>2022-12-01T16:52:38Z</time>
      </trkpt>
      <trkpt lat="46.87278" lon="-1.08372">
        <ele>96</ele>
        <time>2022-12-01T16:52:54Z</time>
      </trkpt>
      <trkpt lat="46.87405" lon="-1.07982">
        <ele>91</ele>
        <time>2022-12-01T16:53:47Z</time>
      </trkpt>
      <trkpt lat="46.8751" lon="-1.07666">
        <ele>85</ele>
        <time>2022-12-01T16:54:29Z</time>
      </trkpt>
      <trkpt lat="46.87523" lon="-1.07621">
        <ele>84</ele>
        <time>2022-12-01T16:54:35Z</time>
      </trkpt>
      <trkpt lat="46.87532" lon="-1.07565">
        <ele>83</ele>
        <time>2022-12-01T16:54:42Z</time>
      </trkpt>
      <trkpt lat="46.87558" lon="-1.07329">
        <ele>82</ele>
        <time>2022-12-01T16:55:11Z</time>
      </trkpt>
      <trkpt lat="46.8756" lon="-1.0729">
        <ele>82</ele>
        <time>2022-12-01T16:55:16Z</time>
      </trkpt>
      <trkpt lat="46.87559" lon="-1.07226">
        <ele>83</ele>
        <time>2022-12-01T16:55:24Z</time>
      </trkpt>
      <trkpt lat="46.87533" lon="-1.06882">
        <ele>84</ele>
        <time>2022-12-01T16:56:06Z</time>
      </trkpt>
      <trkpt lat="46.87495" lon="-1.06621">
        <ele>86</ele>
        <time>2022-12-01T16:56:39Z</time>
      </trkpt>
      <trkpt lat="46.87491" lon="-1.06575">
        <ele>86</ele>
        <time>2022-12-01T16:56:44Z</time>
      </trkpt>
      <trkpt lat="46.87491" lon="-1.06535">
        <ele>86</ele>
        <time>2022-12-01T16:56:49Z</time>
      </trkpt>
      <trkpt lat="46.87509" lon="-1.06371">
        <ele>85</ele>
        <time>2022-12-01T16:57:09Z</time>
      </trkpt>
      <trkpt lat="46.876" lon="-1.05841">
        <ele>85</ele>
        <time>2022-12-01T16:58:16Z</time>
      </trkpt>
      <trkpt lat="46.87632" lon="-1.05667">
        <ele>87</ele>
        <time>2022-12-01T16:58:38Z</time>
      </trkpt>
      <trkpt lat="46.87669" lon="-1.05473">
        <ele>85</ele>
        <time>2022-12-01T16:59:02Z</time>
      </trkpt>
      <trkpt lat="46.87672" lon="-1.05447">
        <ele>86</ele>
        <time>2022-12-01T16:59:05Z</time>
      </trkpt>
      <trkpt lat="46.87672" lon="-1.05404">
        <ele>86</ele>
        <time>2022-12-01T16:59:11Z</time>
      </trkpt>
      <trkpt lat="46.87667" lon="-1.05353">
        <ele>87</ele>
        <time>2022-12-01T16:59:17Z</time>
      </trkpt>
      <trkpt lat="46.87642" lon="-1.05206">
        <ele>87</ele>
        <time>2022-12-01T16:59:35Z</time>
      </trkpt>
      <trkpt lat="46.87629" lon="-1.05157">
        <ele>87</ele>
        <time>2022-12-01T16:59:42Z</time>
      </trkpt>
      <trkpt lat="46.87599" lon="-1.05073">
        <ele>87</ele>
        <time>2022-12-01T16:59:53Z</time>
      </trkpt>
      <trkpt lat="46.8755" lon="-1.04952">
        <ele>88</ele>
        <time>2022-12-01T17:00:10Z</time>
      </trkpt>
      <trkpt lat="46.87276" lon="-1.04301">
        <ele>88</ele>
        <time>2022-12-01T17:01:43Z</time>
      </trkpt>
      <trkpt lat="46.87239" lon="-1.04208">
        <ele>89</ele>
        <time>2022-12-01T17:01:56Z</time>
      </trkpt>
      <trkpt lat="46.87221" lon="-1.04151">
        <ele>91</ele>
        <time>2022-12-01T17:02:04Z</time>
      </trkpt>
      <trkpt lat="46.87213" lon="-1.04106">
        <ele>92</ele>
        <time>2022-12-01T17:02:10Z</time>
      </trkpt>
      <trkpt lat="46.87206" lon="-1.04041">
        <ele>92</ele>
        <time>2022-12-01T17:02:18Z</time>
      </trkpt>
      <trkpt lat="46.872" lon="-1.04009">
        <ele>92</ele>
        <time>2022-12-01T17:02:22Z</time>
      </trkpt>
      <trkpt lat="46.87181" lon="-1.03922">
        <ele>92</ele>
        <time>2022-12-01T17:02:33Z</time>
      </trkpt>
      <trkpt lat="46.8717" lon="-1.03886">
        <ele>91</ele>
        <time>2022-12-01T17:02:38Z</time>
      </trkpt>
      <trkpt lat="46.87164" lon="-1.03871">
        <ele>91</ele>
        <time>2022-12-01T17:02:40Z</time>
      </trkpt>
      <trkpt lat="46.87136" lon="-1.03817">
        <ele>90</ele>
        <time>2022-12-01T17:02:48Z</time>
      </trkpt>
      <trkpt lat="46.8713" lon="-1.03822">
        <ele>90</ele>
        <time>2022-12-01T17:02:49Z</time>
      </trkpt>
      <trkpt lat="46.87123" lon="-1.03821">
        <ele>91</ele>
        <time>2022-12-01T17:02:50Z</time>
      </trkpt>
      <trkpt lat="46.87117" lon="-1.03817">
        <ele>91</ele>
        <time>2022-12-01T17:02:52Z</time>
      </trkpt>
      <trkpt lat="46.87113" lon="-1.0381">
        <ele>91</ele>
        <time>2022-12-01T17:02:53Z</time>
      </trkpt>
      <trkpt lat="46.87112" lon="-1.03802">
        <ele>91</ele>
        <time>2022-12-01T17:02:54Z</time>
      </trkpt>
      <trkpt lat="46.87112" lon="-1.03796">
        <ele>91</ele>
        <time>2022-12-01T17:02:54Z</time>
      </trkpt>
      <trkpt lat="46.87115" lon="-1.03787">
        <ele>91</ele>
        <time>2022-12-01T17:02:56Z</time>
      </trkpt>
      <trkpt lat="46.87121" lon="-1.03781">
        <ele>91</ele>
        <time>2022-12-01T17:02:57Z</time>
      </trkpt>
      <trkpt lat="46.87126" lon="-1.03779">
        <ele>90</ele>
        <time>2022-12-01T17:02:58Z</time>
      </trkpt>
      <trkpt lat="46.87117" lon="-1.03691">
        <ele>91</ele>
        <time>2022-12-01T17:03:09Z</time>
      </trkpt>
      <trkpt lat="46.87116" lon="-1.03652">
        <ele>91</ele>
        <time>2022-12-01T17:03:13Z</time>
      </trkpt>
      <trkpt lat="46.87124" lon="-1.03601">
        <ele>91</ele>
        <time>2022-12-01T17:03:20Z</time>
      </trkpt>
      <trkpt lat="46.87167" lon="-1.03443">
        <ele>91</ele>
        <time>2022-12-01T17:03:41Z</time>
      </trkpt>
      <trkpt lat="46.87176" lon="-1.03388">
        <ele>91</ele>
        <time>2022-12-01T17:03:47Z</time>
      </trkpt>
      <trkpt lat="46.8718" lon="-1.03336">
        <ele>91</ele>
        <time>2022-12-01T17:03:54Z</time>
      </trkpt>
      <trkpt lat="46.87181" lon="-1.03298">
        <ele>90</ele>
        <time>2022-12-01T17:03:58Z</time>
      </trkpt>
      <trkpt lat="46.8718" lon="-1.03261">
        <ele>90</ele>
        <time>2022-12-01T17:04:03Z</time>
      </trkpt>
      <trkpt lat="46.87152" lon="-1.0295">
        <ele>93</ele>
        <time>2022-12-01T17:04:41Z</time>
      </trkpt>
      <trkpt lat="46.8715" lon="-1.02876">
        <ele>94</ele>
        <time>2022-12-01T17:04:50Z</time>
      </trkpt>
      <trkpt lat="46.87151" lon="-1.02839">
        <ele>94</ele>
        <time>2022-12-01T17:04:55Z</time>
      </trkpt>
      <trkpt lat="46.87149" lon="-1.0276">
        <ele>95</ele>
        <time>2022-12-01T17:05:04Z</time>
      </trkpt>
      <trkpt lat="46.87144" lon="-1.02741">
        <ele>95</ele>
        <time>2022-12-01T17:05:07Z</time>
      </trkpt>
      <trkpt lat="46.8714" lon="-1.02736">
        <ele>96</ele>
        <time>2022-12-01T17:05:08Z</time>
      </trkpt>
      <trkpt lat="46.87135" lon="-1.02727">
        <ele>96</ele>
        <time>2022-12-01T17:05:09Z</time>
      </trkpt>
      <trkpt lat="46.87133" lon="-1.02717">
        <ele>96</ele>
        <time>2022-12-01T17:05:10Z</time>
      </trkpt>
      <trkpt lat="46.87135" lon="-1.02699">
        <ele>97</ele>
        <time>2022-12-01T17:05:13Z</time>
      </trkpt>
      <trkpt lat="46.87135" lon="-1.02683">
        <ele>98</ele>
        <time>2022-12-01T17:05:14Z</time>
      </trkpt>
      <trkpt lat="46.87133" lon="-1.02668">
        <ele>98</ele>
        <time>2022-12-01T17:05:16Z</time>
      </trkpt>
      <trkpt lat="46.87116" lon="-1.02635">
        <ele>99</ele>
        <time>2022-12-01T17:05:21Z</time>
      </trkpt>
      <trkpt lat="46.87103" lon="-1.0259">
        <ele>100</ele>
        <time>2022-12-01T17:05:27Z</time>
      </trkpt>
      <trkpt lat="46.87043" lon="-1.02436">
        <ele>103</ele>
        <time>2022-12-01T17:05:49Z</time>
      </trkpt>
      <trkpt lat="46.8703" lon="-1.02394">
        <ele>104</ele>
        <time>2022-12-01T17:05:54Z</time>
      </trkpt>
      <trkpt lat="46.8701" lon="-1.02264">
        <ele>105</ele>
        <time>2022-12-01T17:06:11Z</time>
      </trkpt>
      <trkpt lat="46.87006" lon="-1.02207">
        <ele>106</ele>
        <time>2022-12-01T17:06:18Z</time>
      </trkpt>
      <trkpt lat="46.87007" lon="-1.02146">
        <ele>107</ele>
        <time>2022-12-01T17:06:25Z</time>
      </trkpt>
      <trkpt lat="46.8701" lon="-1.02108">
        <ele>107</ele>
        <time>2022-12-01T17:06:30Z</time>
      </trkpt>
      <trkpt lat="46.87008" lon="-1.02102">
        <ele>107</ele>
        <time>2022-12-01T17:06:31Z</time>
      </trkpt>
      <trkpt lat="46.87003" lon="-1.02097">
        <ele>107</ele>
        <time>2022-12-01T17:06:32Z</time>
      </trkpt>
      <trkpt lat="46.87011" lon="-1.02077">
        <ele>107</ele>
        <time>2022-12-01T17:06:34Z</time>
      </trkpt>
      <trkpt lat="46.87023" lon="-1.0204">
        <ele>108</ele>
        <time>2022-12-01T17:06:39Z</time>
      </trkpt>
      <trkpt lat="46.87038" lon="-1.01927">
        <ele>108</ele>
        <time>2022-12-01T17:06:53Z</time>
      </trkpt>
      <trkpt lat="46.87057" lon="-1.01818">
        <ele>110</ele>
        <time>2022-12-01T17:07:07Z</time>
      </trkpt>
      <trkpt lat="46.87071" lon="-1.01733">
        <ele>110</ele>
        <time>2022-12-01T17:07:18Z</time>
      </trkpt>
      <trkpt lat="46.87075" lon="-1.01712">
        <ele>110</ele>
        <time>2022-12-01T17:07:20Z</time>
      </trkpt>
      <trkpt lat="46.87073" lon="-1.01709">
        <ele>110</ele>
        <time>2022-12-01T17:07:21Z</time>
      </trkpt>
      <trkpt lat="46.87072" lon="-1.01706">
        <ele>110</ele>
        <time>2022-12-01T17:07:21Z</time>
      </trkpt>
      <trkpt lat="46.87073" lon="-1.01702">
        <ele>110</ele>
        <time>2022-12-01T17:07:22Z</time>
      </trkpt>
      <trkpt lat="46.87077" lon="-1.017">
        <ele>110</ele>
        <time>2022-12-01T17:07:23Z</time>
      </trkpt>
      <trkpt lat="46.87103" lon="-1.01544">
        <ele>108</ele>
        <time>2022-12-01T17:07:42Z</time>
      </trkpt>
      <trkpt lat="46.87107" lon="-1.01537">
        <ele>109</ele>
        <time>2022-12-01T17:07:43Z</time>
      </trkpt>
      <trkpt lat="46.8711" lon="-1.01428">
        <ele>107</ele>
        <time>2022-12-01T17:07:56Z</time>
      </trkpt>
      <trkpt lat="46.87115" lon="-1.0134">
        <ele>108</ele>
        <time>2022-12-01T17:08:07Z</time>
      </trkpt>
      <trkpt lat="46.87115" lon="-1.0132">
        <ele>108</ele>
        <time>2022-12-01T17:08:10Z</time>
      </trkpt>
      <trkpt lat="46.87114" lon="-1.01307">
        <ele>108</ele>
        <time>2022-12-01T17:08:11Z</time>
      </trkpt>
      <trkpt lat="46.8704" lon="-1.0106">
        <ele>102</ele>
        <time>2022-12-01T17:08:44Z</time>
      </trkpt>
      <trkpt lat="46.87006" lon="-1.00942">
        <ele>102</ele>
        <time>2022-12-01T17:09:00Z</time>
      </trkpt>
      <trkpt lat="46.87001" lon="-1.00935">
        <ele>103</ele>
        <time>2022-12-01T17:09:01Z</time>
      </trkpt>
      <trkpt lat="46.86996" lon="-1.00934">
        <ele>103</ele>
        <time>2022-12-01T17:09:02Z</time>
      </trkpt>
      <trkpt lat="46.86996" lon="-1.00928">
        <ele>103</ele>
        <time>2022-12-01T17:09:02Z</time>
      </trkpt>
      <trkpt lat="46.86998" lon="-1.00924">
        <ele>103</ele>
        <time>2022-12-01T17:09:03Z</time>
      </trkpt>
      <trkpt lat="46.86999" lon="-1.00914">
        <ele>103</ele>
        <time>2022-12-01T17:09:04Z</time>
      </trkpt>
      <trkpt lat="46.86983" lon="-1.00859">
        <ele>105</ele>
        <time>2022-12-01T17:09:12Z</time>
      </trkpt>
      <trkpt lat="46.86948" lon="-1.00671">
        <ele>109</ele>
        <time>2022-12-01T17:09:35Z</time>
      </trkpt>
      <trkpt lat="46.86937" lon="-1.00661">
        <ele>109</ele>
        <time>2022-12-01T17:09:38Z</time>
      </trkpt>
      <trkpt lat="46.86853" lon="-1.00633">
        <ele>112</ele>
        <time>2022-12-01T17:09:53Z</time>
      </trkpt>
      <trkpt lat="46.86836" lon="-1.00634">
        <ele>112</ele>
        <time>2022-12-01T17:09:56Z</time>
      </trkpt>
      <trkpt lat="46.86765" lon="-1.00654">
        <ele>111</ele>
        <time>2022-12-01T17:10:09Z</time>
      </trkpt>
      <trkpt lat="46.86714" lon="-1.00674">
        <ele>111</ele>
        <time>2022-12-01T17:10:18Z</time>
      </trkpt>
      <trkpt lat="46.86712" lon="-1.00666">
        <ele>111</ele>
        <time>2022-12-01T17:10:19Z</time>
      </trkpt>
      <trkpt lat="46.86708" lon="-1.0066">
        <ele>111</ele>
        <time>2022-12-01T17:10:20Z</time>
      </trkpt>
      <trkpt lat="46.86664" lon="-1.00646">
        <ele>111</ele>
        <time>2022-12-01T17:10:28Z</time>
      </trkpt>
      <trkpt lat="46.86595" lon="-1.00621">
        <ele>116</ele>
        <time>2022-12-01T17:10:41Z</time>
      </trkpt>
      <trkpt lat="46.86573" lon="-1.00609">
        <ele>117</ele>
        <time>2022-12-01T17:10:45Z</time>
      </trkpt>
      <trkpt lat="46.86523" lon="-1.00577">
        <ele>118</ele>
        <time>2022-12-01T17:10:55Z</time>
      </trkpt>
      <trkpt lat="46.86495" lon="-1.00567">
        <ele>119</ele>
        <time>2022-12-01T17:11:00Z</time>
      </trkpt>
      <trkpt lat="46.86461" lon="-1.00561">
        <ele>120</ele>
        <time>2022-12-01T17:11:06Z</time>
      </trkpt>
      <trkpt lat="46.86426" lon="-1.00564">
        <ele>120</ele>
        <time>2022-12-01T17:11:12Z</time>
      </trkpt>
      <trkpt lat="46.86391" lon="-1.00556">
        <ele>120</ele>
        <time>2022-12-01T17:11:19Z</time>
      </trkpt>
      <trkpt lat="46.86381" lon="-1.00562">
        <ele>120</ele>
        <time>2022-12-01T17:11:20Z</time>
      </trkpt>
      <trkpt lat="46.86375" lon="-1.00569">
        <ele>120</ele>
        <time>2022-12-01T17:11:22Z</time>
      </trkpt>
    </trkseg>
  </trk>
</gpx>